<?xml version="1.0" encoding="UTF-8" standalone="no" ?>
<gpx xmlns="http://www.topografix.com/GPX/1/1" creator="CompeGPS" version="1.1" xmlns:xsi="http://www.w3.org/2001/XMLSchema-instance" xsi:schemaLocation="http://www.topografix.com/GPX/1/1 http://www.topografix.com/GPX/1/1/gpx.xsd http://www.garmin.com/xmlschemas/GpxExtensions/v3 http://www.garmin.com/xmlschemas/GpxExtensionsv3.xsd http://www.garmin.com/xmlschemas/TrackPointExtension/v1 http://www.garmin.com/xmlschemas/TrackPointExtensionv1.xsd" xmlns:gpxtpx="http://www.garmin.com/xmlschemas/TrackPointExtension/v1">
  <metadata>
    <link href="http://www.compegps.com">
      <text>CompeGPS TEAM, SL</text>
    </link>
    <time>2020-03-08T19:56:20Z</time>
    <bounds maxlat="43.174433" maxlon="2.643091" minlat="43.143867" minlon="2.610077"/>
  </metadata>
    <wpt lat="43.174418" lon="2.643091">
    <ele>120.3</ele>
    <time>2020-03-08T19:56:42Z</time>
    <name>Depart</name>
    <desc></desc>
    <sym>Waypoint</sym>
  </wpt>
  <wpt lat="43.171957" lon="2.637688">
    <ele>191.5</ele>
    <time>2020-03-08T19:57:07Z</time>
    <name>Carriere</name>
    <desc></desc>
    <sym>Waypoint</sym>
  </wpt>
  <wpt lat="43.167041" lon="2.622237">
    <ele>256.3</ele>
    <time>2020-03-08T19:57:37Z</time>
    <name>Bifurcation</name>
    <desc></desc>
    <sym>Waypoint</sym>
  </wpt>
  <wpt lat="43.166295" lon="2.610600">
    <ele>173.0</ele>
    <time>2020-03-08T19:57:54Z</time>
    <name>Bifurcation - Combe du Gravier</name>
    <desc></desc>
    <sym>Waypoint</sym>
  </wpt>
  <wpt lat="43.145701" lon="2.617322">
    <ele>551.8</ele>
    <time>2020-03-08T19:58:13Z</time>
    <name>Bifurcation GR36</name>
    <desc></desc>
    <sym>Waypoint</sym>
  </wpt>
  <wpt lat="43.147720" lon="2.627886">
    <ele>590.7</ele>
    <time>2020-03-08T19:58:35Z</time>
    <name>Signal d Alaric</name>
    <desc></desc>
    <sym>Waypoint</sym>
  </wpt>
  <wpt lat="43.143867" lon="2.632090">
    <ele>491.3</ele>
    <time>2020-03-08T19:58:52Z</time>
    <name>Promontoire rocheux</name>
    <desc></desc>
    <sym>Waypoint</sym>
  </wpt>
  <wpt lat="43.153758" lon="2.632865">
    <ele>388.4</ele>
    <time>2020-03-08T19:59:12Z</time>
    <name>Lacs de la metairie sans fin</name>
    <desc></desc>
    <sym>Waypoint</sym>
  </wpt>
  <wpt lat="43.159529" lon="2.629564">
    <ele>343.0</ele>
    <time>2020-03-08T19:59:36Z</time>
    <name>Metairie de Vidal</name>
    <desc></desc>
    <sym>Waypoint</sym>
  </wpt>
  <wpt lat="43.161277" lon="2.637729">
    <ele>270.0</ele>
    <time>2020-03-08T19:59:52Z</time>
    <name>Chateau de Saint-Pierre</name>
    <desc></desc>
    <sym>Waypoint</sym>
  </wpt>
  <wpt lat="43.170502" lon="2.642316">
    <ele>144.3</ele>
    <time>2020-03-08T20:00:07Z</time>
    <name>Four a Chaux</name>
    <desc></desc>
    <sym>Waypoint</sym>
  </wpt>
<trk>
    <name>alaric</name>
    <userMyTwoNav></userMyTwoNav>
    <serialNumber></serialNumber>
    <trkseg>
      <trkpt lat="43.174353" lon="2.642944">
        <ele>115.6</ele>
        <time>2020-03-08T08:05:52Z</time>
      </trkpt>
      <trkpt lat="43.174347" lon="2.642810">
        <ele>115.1</ele>
        <time>2020-03-08T08:06:01Z</time>
      </trkpt>
      <trkpt lat="43.174320" lon="2.642682">
        <ele>115.1</ele>
        <time>2020-03-08T08:06:10Z</time>
      </trkpt>
      <trkpt lat="43.174236" lon="2.642605">
        <ele>115.1</ele>
        <time>2020-03-08T08:06:19Z</time>
      </trkpt>
      <trkpt lat="43.174139" lon="2.642575">
        <ele>117.4</ele>
        <time>2020-03-08T08:06:26Z</time>
      </trkpt>
      <trkpt lat="43.174033" lon="2.642541">
        <ele>117.4</ele>
        <time>2020-03-08T08:06:34Z</time>
      </trkpt>
      <trkpt lat="43.173931" lon="2.642500">
        <ele>117.4</ele>
        <time>2020-03-08T08:06:42Z</time>
      </trkpt>
      <trkpt lat="43.173815" lon="2.642483">
        <ele>118.1</ele>
        <time>2020-03-08T08:06:50Z</time>
      </trkpt>
      <trkpt lat="43.173700" lon="2.642476">
        <ele>118.8</ele>
        <time>2020-03-08T08:06:59Z</time>
      </trkpt>
      <trkpt lat="43.173595" lon="2.642478">
        <ele>118.7</ele>
        <time>2020-03-08T08:07:07Z</time>
      </trkpt>
      <trkpt lat="43.173497" lon="2.642499">
        <ele>120.2</ele>
        <time>2020-03-08T08:07:16Z</time>
      </trkpt>
      <trkpt lat="43.173461" lon="2.642408">
        <ele>121.5</ele>
        <time>2020-03-08T08:07:47Z</time>
      </trkpt>
      <trkpt lat="43.173375" lon="2.642307">
        <ele>121.4</ele>
        <time>2020-03-08T08:07:57Z</time>
      </trkpt>
      <trkpt lat="43.173287" lon="2.642225">
        <ele>121.3</ele>
        <time>2020-03-08T08:08:08Z</time>
      </trkpt>
      <trkpt lat="43.173202" lon="2.642132">
        <ele>121.1</ele>
        <time>2020-03-08T08:08:20Z</time>
      </trkpt>
      <trkpt lat="43.173136" lon="2.642035">
        <ele>122.2</ele>
        <time>2020-03-08T08:08:31Z</time>
      </trkpt>
      <trkpt lat="43.173141" lon="2.641877">
        <ele>122.1</ele>
        <time>2020-03-08T08:08:41Z</time>
      </trkpt>
      <trkpt lat="43.173149" lon="2.641726">
        <ele>123.7</ele>
        <time>2020-03-08T08:08:51Z</time>
      </trkpt>
      <trkpt lat="43.173156" lon="2.641556">
        <ele>124.4</ele>
        <time>2020-03-08T08:09:01Z</time>
      </trkpt>
      <trkpt lat="43.173143" lon="2.641391">
        <ele>126.0</ele>
        <time>2020-03-08T08:09:13Z</time>
      </trkpt>
      <trkpt lat="43.173111" lon="2.641235">
        <ele>128.5</ele>
        <time>2020-03-08T08:09:25Z</time>
      </trkpt>
      <trkpt lat="43.173059" lon="2.641092">
        <ele>130.4</ele>
        <time>2020-03-08T08:09:35Z</time>
      </trkpt>
      <trkpt lat="43.173012" lon="2.640958">
        <ele>131.9</ele>
        <time>2020-03-08T08:09:47Z</time>
      </trkpt>
      <trkpt lat="43.172944" lon="2.640852">
        <ele>131.8</ele>
        <time>2020-03-08T08:09:56Z</time>
      </trkpt>
      <trkpt lat="43.172892" lon="2.640717">
        <ele>132.6</ele>
        <time>2020-03-08T08:10:06Z</time>
      </trkpt>
      <trkpt lat="43.172817" lon="2.640605">
        <ele>133.5</ele>
        <time>2020-03-08T08:10:15Z</time>
      </trkpt>
      <trkpt lat="43.172748" lon="2.640508">
        <ele>134.2</ele>
        <time>2020-03-08T08:10:25Z</time>
      </trkpt>
      <trkpt lat="43.172691" lon="2.640384">
        <ele>136.5</ele>
        <time>2020-03-08T08:10:37Z</time>
      </trkpt>
      <trkpt lat="43.172667" lon="2.640224">
        <ele>138.1</ele>
        <time>2020-03-08T08:10:50Z</time>
      </trkpt>
      <trkpt lat="43.172636" lon="2.640064">
        <ele>140.5</ele>
        <time>2020-03-08T08:11:03Z</time>
      </trkpt>
      <trkpt lat="43.172600" lon="2.639919">
        <ele>143.1</ele>
        <time>2020-03-08T08:11:19Z</time>
      </trkpt>
      <trkpt lat="43.172588" lon="2.639765">
        <ele>146.5</ele>
        <time>2020-03-08T08:11:35Z</time>
      </trkpt>
      <trkpt lat="43.172561" lon="2.639595">
        <ele>148.9</ele>
        <time>2020-03-08T08:11:51Z</time>
      </trkpt>
      <trkpt lat="43.172535" lon="2.639438">
        <ele>152.0</ele>
        <time>2020-03-08T08:12:07Z</time>
      </trkpt>
      <trkpt lat="43.172505" lon="2.639267">
        <ele>154.4</ele>
        <time>2020-03-08T08:12:23Z</time>
      </trkpt>
      <trkpt lat="43.172476" lon="2.639087">
        <ele>156.9</ele>
        <time>2020-03-08T08:12:39Z</time>
      </trkpt>
      <trkpt lat="43.172426" lon="2.638901">
        <ele>158.4</ele>
        <time>2020-03-08T08:12:54Z</time>
      </trkpt>
      <trkpt lat="43.172385" lon="2.638729">
        <ele>160.1</ele>
        <time>2020-03-08T08:13:06Z</time>
      </trkpt>
      <trkpt lat="43.172349" lon="2.638544">
        <ele>162.7</ele>
        <time>2020-03-08T08:13:20Z</time>
      </trkpt>
      <trkpt lat="43.172297" lon="2.638397">
        <ele>163.4</ele>
        <time>2020-03-08T08:13:36Z</time>
      </trkpt>
      <trkpt lat="43.172239" lon="2.638252">
        <ele>166.1</ele>
        <time>2020-03-08T08:13:49Z</time>
      </trkpt>
      <trkpt lat="43.172169" lon="2.638129">
        <ele>166.9</ele>
        <time>2020-03-08T08:14:02Z</time>
      </trkpt>
      <trkpt lat="43.172077" lon="2.638063">
        <ele>167.7</ele>
        <time>2020-03-08T08:14:14Z</time>
      </trkpt>
      <trkpt lat="43.172010" lon="2.637972">
        <ele>171.0</ele>
        <time>2020-03-08T08:14:28Z</time>
      </trkpt>
      <trkpt lat="43.171982" lon="2.637835">
        <ele>173.4</ele>
        <time>2020-03-08T08:14:43Z</time>
      </trkpt>
      <trkpt lat="43.171957" lon="2.637688">
        <ele>175.8</ele>
        <time>2020-03-08T08:14:58Z</time>
      </trkpt>
      <trkpt lat="43.171922" lon="2.637548">
        <ele>178.2</ele>
        <time>2020-03-08T08:15:13Z</time>
      </trkpt>
      <trkpt lat="43.171842" lon="2.637431">
        <ele>181.4</ele>
        <time>2020-03-08T08:15:26Z</time>
      </trkpt>
      <trkpt lat="43.171780" lon="2.637309">
        <ele>183.1</ele>
        <time>2020-03-08T08:15:39Z</time>
      </trkpt>
      <trkpt lat="43.171746" lon="2.637175">
        <ele>184.7</ele>
        <time>2020-03-08T08:16:01Z</time>
      </trkpt>
      <trkpt lat="43.171683" lon="2.637069">
        <ele>186.4</ele>
        <time>2020-03-08T08:16:13Z</time>
      </trkpt>
      <trkpt lat="43.171622" lon="2.636978">
        <ele>189.0</ele>
        <time>2020-03-08T08:16:28Z</time>
      </trkpt>
      <trkpt lat="43.171608" lon="2.636855">
        <ele>191.8</ele>
        <time>2020-03-08T08:16:43Z</time>
      </trkpt>
      <trkpt lat="43.171593" lon="2.636723">
        <ele>195.4</ele>
        <time>2020-03-08T08:17:00Z</time>
      </trkpt>
      <trkpt lat="43.171567" lon="2.636595">
        <ele>197.5</ele>
        <time>2020-03-08T08:17:19Z</time>
      </trkpt>
      <trkpt lat="43.171501" lon="2.636474">
        <ele>200.1</ele>
        <time>2020-03-08T08:17:35Z</time>
      </trkpt>
      <trkpt lat="43.171419" lon="2.636376">
        <ele>201.9</ele>
        <time>2020-03-08T08:17:50Z</time>
      </trkpt>
      <trkpt lat="43.171398" lon="2.636238">
        <ele>202.9</ele>
        <time>2020-03-08T08:18:02Z</time>
      </trkpt>
      <trkpt lat="43.171359" lon="2.636114">
        <ele>205.3</ele>
        <time>2020-03-08T08:18:15Z</time>
      </trkpt>
      <trkpt lat="43.171340" lon="2.635975">
        <ele>207.8</ele>
        <time>2020-03-08T08:18:30Z</time>
      </trkpt>
      <trkpt lat="43.171349" lon="2.635930">
        <ele>207.9</ele>
        <time>2020-03-08T08:20:14Z</time>
      </trkpt>
      <trkpt lat="43.171371" lon="2.635891">
        <ele>208.8</ele>
        <time>2020-03-08T08:23:20Z</time>
      </trkpt>
      <trkpt lat="43.171333" lon="2.635749">
        <ele>211.5</ele>
        <time>2020-03-08T08:23:33Z</time>
      </trkpt>
      <trkpt lat="43.171304" lon="2.635616">
        <ele>213.0</ele>
        <time>2020-03-08T08:23:44Z</time>
      </trkpt>
      <trkpt lat="43.171253" lon="2.635469">
        <ele>214.7</ele>
        <time>2020-03-08T08:23:56Z</time>
      </trkpt>
      <trkpt lat="43.171186" lon="2.635339">
        <ele>216.3</ele>
        <time>2020-03-08T08:24:08Z</time>
      </trkpt>
      <trkpt lat="43.171147" lon="2.635200">
        <ele>218.1</ele>
        <time>2020-03-08T08:24:21Z</time>
      </trkpt>
      <trkpt lat="43.171085" lon="2.635056">
        <ele>220.4</ele>
        <time>2020-03-08T08:24:34Z</time>
      </trkpt>
      <trkpt lat="43.171024" lon="2.634925">
        <ele>222.0</ele>
        <time>2020-03-08T08:24:46Z</time>
      </trkpt>
      <trkpt lat="43.170969" lon="2.634792">
        <ele>223.5</ele>
        <time>2020-03-08T08:24:59Z</time>
      </trkpt>
      <trkpt lat="43.170913" lon="2.634652">
        <ele>225.1</ele>
        <time>2020-03-08T08:25:12Z</time>
      </trkpt>
      <trkpt lat="43.170896" lon="2.634494">
        <ele>226.8</ele>
        <time>2020-03-08T08:25:25Z</time>
      </trkpt>
      <trkpt lat="43.170854" lon="2.634338">
        <ele>226.7</ele>
        <time>2020-03-08T08:25:35Z</time>
      </trkpt>
      <trkpt lat="43.170826" lon="2.634200">
        <ele>226.5</ele>
        <time>2020-03-08T08:25:45Z</time>
      </trkpt>
      <trkpt lat="43.170815" lon="2.634055">
        <ele>226.4</ele>
        <time>2020-03-08T08:25:55Z</time>
      </trkpt>
      <trkpt lat="43.170788" lon="2.633912">
        <ele>226.3</ele>
        <time>2020-03-08T08:26:05Z</time>
      </trkpt>
      <trkpt lat="43.170700" lon="2.633799">
        <ele>226.3</ele>
        <time>2020-03-08T08:26:16Z</time>
      </trkpt>
      <trkpt lat="43.170626" lon="2.633652">
        <ele>227.1</ele>
        <time>2020-03-08T08:26:27Z</time>
      </trkpt>
      <trkpt lat="43.170574" lon="2.633502">
        <ele>226.8</ele>
        <time>2020-03-08T08:26:41Z</time>
      </trkpt>
      <trkpt lat="43.170558" lon="2.633338">
        <ele>223.3</ele>
        <time>2020-03-08T08:26:53Z</time>
      </trkpt>
      <trkpt lat="43.170578" lon="2.633181">
        <ele>220.4</ele>
        <time>2020-03-08T08:27:07Z</time>
      </trkpt>
      <trkpt lat="43.170578" lon="2.632977">
        <ele>216.4</ele>
        <time>2020-03-08T08:27:20Z</time>
      </trkpt>
      <trkpt lat="43.170602" lon="2.632835">
        <ele>212.4</ele>
        <time>2020-03-08T08:27:30Z</time>
      </trkpt>
      <trkpt lat="43.170562" lon="2.632695">
        <ele>210.2</ele>
        <time>2020-03-08T08:27:38Z</time>
      </trkpt>
      <trkpt lat="43.170534" lon="2.632553">
        <ele>208.2</ele>
        <time>2020-03-08T08:27:47Z</time>
      </trkpt>
      <trkpt lat="43.170531" lon="2.632403">
        <ele>206.6</ele>
        <time>2020-03-08T08:27:57Z</time>
      </trkpt>
      <trkpt lat="43.170496" lon="2.632227">
        <ele>205.6</ele>
        <time>2020-03-08T08:28:10Z</time>
      </trkpt>
      <trkpt lat="43.170506" lon="2.632041">
        <ele>203.9</ele>
        <time>2020-03-08T08:28:21Z</time>
      </trkpt>
      <trkpt lat="43.170531" lon="2.631893">
        <ele>202.0</ele>
        <time>2020-03-08T08:28:30Z</time>
      </trkpt>
      <trkpt lat="43.170539" lon="2.631745">
        <ele>200.3</ele>
        <time>2020-03-08T08:28:39Z</time>
      </trkpt>
      <trkpt lat="43.170536" lon="2.631602">
        <ele>200.3</ele>
        <time>2020-03-08T08:28:49Z</time>
      </trkpt>
      <trkpt lat="43.170574" lon="2.631481">
        <ele>199.4</ele>
        <time>2020-03-08T08:29:00Z</time>
      </trkpt>
      <trkpt lat="43.170587" lon="2.631323">
        <ele>199.4</ele>
        <time>2020-03-08T08:29:14Z</time>
      </trkpt>
      <trkpt lat="43.170588" lon="2.631134">
        <ele>199.2</ele>
        <time>2020-03-08T08:29:25Z</time>
      </trkpt>
      <trkpt lat="43.170506" lon="2.630978">
        <ele>203.1</ele>
        <time>2020-03-08T08:29:37Z</time>
      </trkpt>
      <trkpt lat="43.170435" lon="2.630885">
        <ele>204.7</ele>
        <time>2020-03-08T08:29:48Z</time>
      </trkpt>
      <trkpt lat="43.170400" lon="2.630770">
        <ele>206.1</ele>
        <time>2020-03-08T08:29:59Z</time>
      </trkpt>
      <trkpt lat="43.170363" lon="2.630633">
        <ele>208.9</ele>
        <time>2020-03-08T08:30:13Z</time>
      </trkpt>
      <trkpt lat="43.170320" lon="2.630539">
        <ele>210.5</ele>
        <time>2020-03-08T08:30:25Z</time>
      </trkpt>
      <trkpt lat="43.170264" lon="2.630416">
        <ele>213.2</ele>
        <time>2020-03-08T08:30:38Z</time>
      </trkpt>
      <trkpt lat="43.170195" lon="2.630304">
        <ele>215.5</ele>
        <time>2020-03-08T08:30:52Z</time>
      </trkpt>
      <trkpt lat="43.170156" lon="2.630175">
        <ele>218.1</ele>
        <time>2020-03-08T08:31:07Z</time>
      </trkpt>
      <trkpt lat="43.170088" lon="2.630069">
        <ele>220.8</ele>
        <time>2020-03-08T08:31:21Z</time>
      </trkpt>
      <trkpt lat="43.170048" lon="2.629942">
        <ele>222.6</ele>
        <time>2020-03-08T08:31:32Z</time>
      </trkpt>
      <trkpt lat="43.169993" lon="2.629831">
        <ele>224.4</ele>
        <time>2020-03-08T08:31:44Z</time>
      </trkpt>
      <trkpt lat="43.169967" lon="2.629735">
        <ele>226.0</ele>
        <time>2020-03-08T08:31:58Z</time>
      </trkpt>
      <trkpt lat="43.169932" lon="2.629728">
        <ele>226.8</ele>
        <time>2020-03-08T08:33:01Z</time>
      </trkpt>
      <trkpt lat="43.169932" lon="2.629614">
        <ele>226.8</ele>
        <time>2020-03-08T08:33:29Z</time>
      </trkpt>
      <trkpt lat="43.169890" lon="2.629493">
        <ele>223.7</ele>
        <time>2020-03-08T08:33:39Z</time>
      </trkpt>
      <trkpt lat="43.169834" lon="2.629381">
        <ele>222.8</ele>
        <time>2020-03-08T08:33:48Z</time>
      </trkpt>
      <trkpt lat="43.169772" lon="2.629273">
        <ele>221.8</ele>
        <time>2020-03-08T08:33:58Z</time>
      </trkpt>
      <trkpt lat="43.169771" lon="2.629151">
        <ele>219.0</ele>
        <time>2020-03-08T08:34:07Z</time>
      </trkpt>
      <trkpt lat="43.169786" lon="2.629010">
        <ele>217.4</ele>
        <time>2020-03-08T08:34:17Z</time>
      </trkpt>
      <trkpt lat="43.169800" lon="2.628863">
        <ele>215.9</ele>
        <time>2020-03-08T08:34:27Z</time>
      </trkpt>
      <trkpt lat="43.169776" lon="2.628723">
        <ele>215.1</ele>
        <time>2020-03-08T08:34:37Z</time>
      </trkpt>
      <trkpt lat="43.169746" lon="2.628601">
        <ele>211.2</ele>
        <time>2020-03-08T08:34:46Z</time>
      </trkpt>
      <trkpt lat="43.169704" lon="2.628460">
        <ele>209.4</ele>
        <time>2020-03-08T08:34:55Z</time>
      </trkpt>
      <trkpt lat="43.169635" lon="2.628321">
        <ele>206.6</ele>
        <time>2020-03-08T08:35:06Z</time>
      </trkpt>
      <trkpt lat="43.169621" lon="2.628208">
        <ele>207.0</ele>
        <time>2020-03-08T08:35:30Z</time>
      </trkpt>
      <trkpt lat="43.169601" lon="2.628045">
        <ele>204.7</ele>
        <time>2020-03-08T08:35:41Z</time>
      </trkpt>
      <trkpt lat="43.169610" lon="2.627926">
        <ele>202.4</ele>
        <time>2020-03-08T08:35:51Z</time>
      </trkpt>
      <trkpt lat="43.169646" lon="2.627821">
        <ele>201.6</ele>
        <time>2020-03-08T08:36:05Z</time>
      </trkpt>
      <trkpt lat="43.169673" lon="2.627678">
        <ele>199.8</ele>
        <time>2020-03-08T08:36:15Z</time>
      </trkpt>
      <trkpt lat="43.169670" lon="2.627537">
        <ele>198.9</ele>
        <time>2020-03-08T08:36:23Z</time>
      </trkpt>
      <trkpt lat="43.169642" lon="2.627420">
        <ele>199.0</ele>
        <time>2020-03-08T08:36:33Z</time>
      </trkpt>
      <trkpt lat="43.169674" lon="2.627286">
        <ele>199.1</ele>
        <time>2020-03-08T08:36:50Z</time>
      </trkpt>
      <trkpt lat="43.169738" lon="2.627149">
        <ele>197.4</ele>
        <time>2020-03-08T08:37:02Z</time>
      </trkpt>
      <trkpt lat="43.169792" lon="2.626963">
        <ele>196.7</ele>
        <time>2020-03-08T08:37:14Z</time>
      </trkpt>
      <trkpt lat="43.169788" lon="2.626789">
        <ele>196.7</ele>
        <time>2020-03-08T08:37:27Z</time>
      </trkpt>
      <trkpt lat="43.169695" lon="2.626728">
        <ele>196.7</ele>
        <time>2020-03-08T08:37:46Z</time>
      </trkpt>
      <trkpt lat="43.169599" lon="2.626659">
        <ele>201.5</ele>
        <time>2020-03-08T08:38:02Z</time>
      </trkpt>
      <trkpt lat="43.169464" lon="2.626611">
        <ele>204.3</ele>
        <time>2020-03-08T08:38:18Z</time>
      </trkpt>
      <trkpt lat="43.169378" lon="2.626574">
        <ele>208.4</ele>
        <time>2020-03-08T08:38:36Z</time>
      </trkpt>
      <trkpt lat="43.169403" lon="2.626423">
        <ele>208.2</ele>
        <time>2020-03-08T08:38:51Z</time>
      </trkpt>
      <trkpt lat="43.169438" lon="2.626270">
        <ele>211.7</ele>
        <time>2020-03-08T08:39:09Z</time>
      </trkpt>
      <trkpt lat="43.169370" lon="2.626099">
        <ele>215.6</ele>
        <time>2020-03-08T08:39:30Z</time>
      </trkpt>
      <trkpt lat="43.169332" lon="2.625975">
        <ele>218.9</ele>
        <time>2020-03-08T08:39:47Z</time>
      </trkpt>
      <trkpt lat="43.169257" lon="2.625854">
        <ele>224.1</ele>
        <time>2020-03-08T08:40:11Z</time>
      </trkpt>
      <trkpt lat="43.169171" lon="2.625782">
        <ele>226.6</ele>
        <time>2020-03-08T08:40:27Z</time>
      </trkpt>
      <trkpt lat="43.169007" lon="2.625697">
        <ele>229.1</ele>
        <time>2020-03-08T08:40:47Z</time>
      </trkpt>
      <trkpt lat="43.168864" lon="2.625688">
        <ele>230.6</ele>
        <time>2020-03-08T08:41:02Z</time>
      </trkpt>
      <trkpt lat="43.168737" lon="2.625661">
        <ele>231.3</ele>
        <time>2020-03-08T08:41:16Z</time>
      </trkpt>
      <trkpt lat="43.168591" lon="2.625647">
        <ele>232.0</ele>
        <time>2020-03-08T08:41:33Z</time>
      </trkpt>
      <trkpt lat="43.168470" lon="2.625616">
        <ele>234.3</ele>
        <time>2020-03-08T08:41:47Z</time>
      </trkpt>
      <trkpt lat="43.168416" lon="2.625529">
        <ele>237.0</ele>
        <time>2020-03-08T08:42:00Z</time>
      </trkpt>
      <trkpt lat="43.168430" lon="2.625462">
        <ele>236.9</ele>
        <time>2020-03-08T08:42:10Z</time>
      </trkpt>
      <trkpt lat="43.168384" lon="2.625332">
        <ele>236.8</ele>
        <time>2020-03-08T08:42:20Z</time>
      </trkpt>
      <trkpt lat="43.168318" lon="2.625193">
        <ele>236.8</ele>
        <time>2020-03-08T08:42:30Z</time>
      </trkpt>
      <trkpt lat="43.168254" lon="2.625064">
        <ele>236.9</ele>
        <time>2020-03-08T08:42:40Z</time>
      </trkpt>
      <trkpt lat="43.168183" lon="2.624976">
        <ele>233.7</ele>
        <time>2020-03-08T08:42:49Z</time>
      </trkpt>
      <trkpt lat="43.168109" lon="2.624878">
        <ele>232.9</ele>
        <time>2020-03-08T08:42:59Z</time>
      </trkpt>
      <trkpt lat="43.168043" lon="2.624740">
        <ele>232.1</ele>
        <time>2020-03-08T08:43:09Z</time>
      </trkpt>
      <trkpt lat="43.167988" lon="2.624620">
        <ele>232.2</ele>
        <time>2020-03-08T08:43:18Z</time>
      </trkpt>
      <trkpt lat="43.167930" lon="2.624504">
        <ele>231.4</ele>
        <time>2020-03-08T08:43:27Z</time>
      </trkpt>
      <trkpt lat="43.167868" lon="2.624383">
        <ele>231.5</ele>
        <time>2020-03-08T08:43:38Z</time>
      </trkpt>
      <trkpt lat="43.167807" lon="2.624253">
        <ele>231.6</ele>
        <time>2020-03-08T08:43:51Z</time>
      </trkpt>
      <trkpt lat="43.167739" lon="2.624121">
        <ele>231.7</ele>
        <time>2020-03-08T08:44:02Z</time>
      </trkpt>
      <trkpt lat="43.167682" lon="2.623974">
        <ele>234.1</ele>
        <time>2020-03-08T08:44:15Z</time>
      </trkpt>
      <trkpt lat="43.167610" lon="2.623827">
        <ele>234.9</ele>
        <time>2020-03-08T08:44:28Z</time>
      </trkpt>
      <trkpt lat="43.167560" lon="2.623687">
        <ele>234.9</ele>
        <time>2020-03-08T08:44:39Z</time>
      </trkpt>
      <trkpt lat="43.167468" lon="2.623527">
        <ele>235.7</ele>
        <time>2020-03-08T08:44:52Z</time>
      </trkpt>
      <trkpt lat="43.167430" lon="2.623353">
        <ele>239.2</ele>
        <time>2020-03-08T08:45:10Z</time>
      </trkpt>
      <trkpt lat="43.167414" lon="2.623193">
        <ele>241.5</ele>
        <time>2020-03-08T08:45:27Z</time>
      </trkpt>
      <trkpt lat="43.167397" lon="2.623045">
        <ele>243.8</ele>
        <time>2020-03-08T08:45:43Z</time>
      </trkpt>
      <trkpt lat="43.167380" lon="2.622893">
        <ele>245.4</ele>
        <time>2020-03-08T08:45:58Z</time>
      </trkpt>
      <trkpt lat="43.167355" lon="2.622769">
        <ele>247.0</ele>
        <time>2020-03-08T08:46:15Z</time>
      </trkpt>
      <trkpt lat="43.167256" lon="2.622568">
        <ele>249.5</ele>
        <time>2020-03-08T08:46:31Z</time>
      </trkpt>
      <trkpt lat="43.167154" lon="2.622423">
        <ele>251.0</ele>
        <time>2020-03-08T08:46:43Z</time>
      </trkpt>
      <trkpt lat="43.167094" lon="2.622293">
        <ele>251.8</ele>
        <time>2020-03-08T08:46:58Z</time>
      </trkpt>
      <trkpt lat="43.167041" lon="2.622237">
        <ele>252.6</ele>
        <time>2020-03-08T08:47:38Z</time>
      </trkpt>
      <trkpt lat="43.167063" lon="2.622128">
        <ele>253.1</ele>
        <time>2020-03-08T08:49:22Z</time>
      </trkpt>
      <trkpt lat="43.167116" lon="2.622011">
        <ele>248.1</ele>
        <time>2020-03-08T08:49:32Z</time>
      </trkpt>
      <trkpt lat="43.167133" lon="2.621844">
        <ele>245.5</ele>
        <time>2020-03-08T08:49:47Z</time>
      </trkpt>
      <trkpt lat="43.167148" lon="2.621657">
        <ele>241.9</ele>
        <time>2020-03-08T08:50:00Z</time>
      </trkpt>
      <trkpt lat="43.167169" lon="2.621494">
        <ele>238.5</ele>
        <time>2020-03-08T08:50:13Z</time>
      </trkpt>
      <trkpt lat="43.167201" lon="2.621299">
        <ele>233.2</ele>
        <time>2020-03-08T08:50:26Z</time>
      </trkpt>
      <trkpt lat="43.167193" lon="2.621137">
        <ele>229.6</ele>
        <time>2020-03-08T08:50:36Z</time>
      </trkpt>
      <trkpt lat="43.167192" lon="2.620960">
        <ele>226.0</ele>
        <time>2020-03-08T08:50:46Z</time>
      </trkpt>
      <trkpt lat="43.167190" lon="2.620788">
        <ele>222.5</ele>
        <time>2020-03-08T08:50:59Z</time>
      </trkpt>
      <trkpt lat="43.167224" lon="2.620605">
        <ele>217.0</ele>
        <time>2020-03-08T08:51:16Z</time>
      </trkpt>
      <trkpt lat="43.167214" lon="2.620420">
        <ele>212.2</ele>
        <time>2020-03-08T08:51:30Z</time>
      </trkpt>
      <trkpt lat="43.167184" lon="2.620255">
        <ele>208.5</ele>
        <time>2020-03-08T08:51:44Z</time>
      </trkpt>
      <trkpt lat="43.167144" lon="2.620108">
        <ele>206.9</ele>
        <time>2020-03-08T08:51:56Z</time>
      </trkpt>
      <trkpt lat="43.167077" lon="2.619957">
        <ele>203.2</ele>
        <time>2020-03-08T08:52:09Z</time>
      </trkpt>
      <trkpt lat="43.167054" lon="2.619771">
        <ele>199.3</ele>
        <time>2020-03-08T08:52:21Z</time>
      </trkpt>
      <trkpt lat="43.167044" lon="2.619602">
        <ele>194.6</ele>
        <time>2020-03-08T08:52:33Z</time>
      </trkpt>
      <trkpt lat="43.166983" lon="2.619458">
        <ele>191.3</ele>
        <time>2020-03-08T08:52:45Z</time>
      </trkpt>
      <trkpt lat="43.166961" lon="2.619275">
        <ele>187.9</ele>
        <time>2020-03-08T08:52:57Z</time>
      </trkpt>
      <trkpt lat="43.166855" lon="2.619169">
        <ele>188.0</ele>
        <time>2020-03-08T08:53:08Z</time>
      </trkpt>
      <trkpt lat="43.166766" lon="2.619198">
        <ele>188.0</ele>
        <time>2020-03-08T08:53:25Z</time>
      </trkpt>
      <trkpt lat="43.166709" lon="2.619182">
        <ele>188.0</ele>
        <time>2020-03-08T08:54:13Z</time>
      </trkpt>
      <trkpt lat="43.166605" lon="2.619154">
        <ele>192.4</ele>
        <time>2020-03-08T08:54:27Z</time>
      </trkpt>
      <trkpt lat="43.166540" lon="2.619170">
        <ele>196.5</ele>
        <time>2020-03-08T08:54:43Z</time>
      </trkpt>
      <trkpt lat="43.166471" lon="2.619160">
        <ele>201.0</ele>
        <time>2020-03-08T08:55:05Z</time>
      </trkpt>
      <trkpt lat="43.166375" lon="2.619111">
        <ele>205.2</ele>
        <time>2020-03-08T08:55:21Z</time>
      </trkpt>
      <trkpt lat="43.166301" lon="2.618990">
        <ele>206.0</ele>
        <time>2020-03-08T08:55:33Z</time>
      </trkpt>
      <trkpt lat="43.166241" lon="2.618872">
        <ele>206.0</ele>
        <time>2020-03-08T08:55:43Z</time>
      </trkpt>
      <trkpt lat="43.166209" lon="2.618729">
        <ele>206.0</ele>
        <time>2020-03-08T08:55:52Z</time>
      </trkpt>
      <trkpt lat="43.166156" lon="2.618601">
        <ele>206.1</ele>
        <time>2020-03-08T08:56:00Z</time>
      </trkpt>
      <trkpt lat="43.166084" lon="2.618500">
        <ele>203.8</ele>
        <time>2020-03-08T08:56:09Z</time>
      </trkpt>
      <trkpt lat="43.166022" lon="2.618406">
        <ele>203.9</ele>
        <time>2020-03-08T08:56:18Z</time>
      </trkpt>
      <trkpt lat="43.165968" lon="2.618293">
        <ele>204.0</ele>
        <time>2020-03-08T08:56:28Z</time>
      </trkpt>
      <trkpt lat="43.165940" lon="2.618173">
        <ele>204.1</ele>
        <time>2020-03-08T08:56:37Z</time>
      </trkpt>
      <trkpt lat="43.165935" lon="2.618027">
        <ele>204.1</ele>
        <time>2020-03-08T08:56:46Z</time>
      </trkpt>
      <trkpt lat="43.165928" lon="2.617887">
        <ele>202.3</ele>
        <time>2020-03-08T08:56:56Z</time>
      </trkpt>
      <trkpt lat="43.165923" lon="2.617743">
        <ele>200.5</ele>
        <time>2020-03-08T08:57:06Z</time>
      </trkpt>
      <trkpt lat="43.165962" lon="2.617622">
        <ele>197.6</ele>
        <time>2020-03-08T08:57:16Z</time>
      </trkpt>
      <trkpt lat="43.165979" lon="2.617449">
        <ele>195.0</ele>
        <time>2020-03-08T08:57:27Z</time>
      </trkpt>
      <trkpt lat="43.166013" lon="2.617290">
        <ele>195.0</ele>
        <time>2020-03-08T08:57:40Z</time>
      </trkpt>
      <trkpt lat="43.166041" lon="2.617127">
        <ele>195.0</ele>
        <time>2020-03-08T08:57:54Z</time>
      </trkpt>
      <trkpt lat="43.166101" lon="2.616957">
        <ele>198.4</ele>
        <time>2020-03-08T08:58:07Z</time>
      </trkpt>
      <trkpt lat="43.166119" lon="2.616814">
        <ele>203.0</ele>
        <time>2020-03-08T08:58:24Z</time>
      </trkpt>
      <trkpt lat="43.166170" lon="2.616696">
        <ele>207.5</ele>
        <time>2020-03-08T08:58:40Z</time>
      </trkpt>
      <trkpt lat="43.166197" lon="2.616545">
        <ele>210.0</ele>
        <time>2020-03-08T08:58:54Z</time>
      </trkpt>
      <trkpt lat="43.166150" lon="2.616393">
        <ele>215.3</ele>
        <time>2020-03-08T08:59:13Z</time>
      </trkpt>
      <trkpt lat="43.166064" lon="2.616321">
        <ele>216.2</ele>
        <time>2020-03-08T08:59:26Z</time>
      </trkpt>
      <trkpt lat="43.165998" lon="2.616261">
        <ele>216.1</ele>
        <time>2020-03-08T08:59:37Z</time>
      </trkpt>
      <trkpt lat="43.165948" lon="2.616149">
        <ele>216.8</ele>
        <time>2020-03-08T08:59:47Z</time>
      </trkpt>
      <trkpt lat="43.165904" lon="2.615994">
        <ele>217.7</ele>
        <time>2020-03-08T08:59:59Z</time>
      </trkpt>
      <trkpt lat="43.165820" lon="2.615882">
        <ele>220.3</ele>
        <time>2020-03-08T09:00:12Z</time>
      </trkpt>
      <trkpt lat="43.165747" lon="2.615749">
        <ele>221.2</ele>
        <time>2020-03-08T09:00:25Z</time>
      </trkpt>
      <trkpt lat="43.165688" lon="2.615594">
        <ele>221.2</ele>
        <time>2020-03-08T09:00:36Z</time>
      </trkpt>
      <trkpt lat="43.165679" lon="2.615451">
        <ele>221.2</ele>
        <time>2020-03-08T09:00:47Z</time>
      </trkpt>
      <trkpt lat="43.165694" lon="2.615325">
        <ele>221.2</ele>
        <time>2020-03-08T09:00:58Z</time>
      </trkpt>
      <trkpt lat="43.165706" lon="2.615146">
        <ele>221.3</ele>
        <time>2020-03-08T09:01:09Z</time>
      </trkpt>
      <trkpt lat="43.165705" lon="2.614973">
        <ele>217.1</ele>
        <time>2020-03-08T09:01:24Z</time>
      </trkpt>
      <trkpt lat="43.165713" lon="2.614777">
        <ele>215.5</ele>
        <time>2020-03-08T09:01:37Z</time>
      </trkpt>
      <trkpt lat="43.165685" lon="2.614628">
        <ele>211.8</ele>
        <time>2020-03-08T09:01:51Z</time>
      </trkpt>
      <trkpt lat="43.165650" lon="2.614479">
        <ele>209.2</ele>
        <time>2020-03-08T09:02:04Z</time>
      </trkpt>
      <trkpt lat="43.165680" lon="2.614323">
        <ele>206.5</ele>
        <time>2020-03-08T09:02:16Z</time>
      </trkpt>
      <trkpt lat="43.165677" lon="2.614147">
        <ele>204.4</ele>
        <time>2020-03-08T09:02:28Z</time>
      </trkpt>
      <trkpt lat="43.165685" lon="2.613988">
        <ele>202.0</ele>
        <time>2020-03-08T09:02:39Z</time>
      </trkpt>
      <trkpt lat="43.165715" lon="2.613820">
        <ele>199.6</ele>
        <time>2020-03-08T09:02:55Z</time>
      </trkpt>
      <trkpt lat="43.165737" lon="2.613609">
        <ele>196.4</ele>
        <time>2020-03-08T09:03:07Z</time>
      </trkpt>
      <trkpt lat="43.165764" lon="2.613433">
        <ele>192.9</ele>
        <time>2020-03-08T09:03:20Z</time>
      </trkpt>
      <trkpt lat="43.165790" lon="2.613257">
        <ele>191.1</ele>
        <time>2020-03-08T09:03:33Z</time>
      </trkpt>
      <trkpt lat="43.165813" lon="2.613076">
        <ele>187.6</ele>
        <time>2020-03-08T09:03:49Z</time>
      </trkpt>
      <trkpt lat="43.165887" lon="2.612883">
        <ele>184.4</ele>
        <time>2020-03-08T09:04:03Z</time>
      </trkpt>
      <trkpt lat="43.165896" lon="2.612710">
        <ele>182.4</ele>
        <time>2020-03-08T09:04:13Z</time>
      </trkpt>
      <trkpt lat="43.165888" lon="2.612561">
        <ele>181.6</ele>
        <time>2020-03-08T09:04:21Z</time>
      </trkpt>
      <trkpt lat="43.165900" lon="2.612397">
        <ele>180.6</ele>
        <time>2020-03-08T09:04:30Z</time>
      </trkpt>
      <trkpt lat="43.165903" lon="2.612236">
        <ele>179.7</ele>
        <time>2020-03-08T09:04:38Z</time>
      </trkpt>
      <trkpt lat="43.165897" lon="2.612066">
        <ele>178.0</ele>
        <time>2020-03-08T09:04:47Z</time>
      </trkpt>
      <trkpt lat="43.165903" lon="2.611900">
        <ele>176.4</ele>
        <time>2020-03-08T09:04:56Z</time>
      </trkpt>
      <trkpt lat="43.165940" lon="2.611749">
        <ele>174.6</ele>
        <time>2020-03-08T09:05:05Z</time>
      </trkpt>
      <trkpt lat="43.165962" lon="2.611606">
        <ele>173.9</ele>
        <time>2020-03-08T09:05:15Z</time>
      </trkpt>
      <trkpt lat="43.166013" lon="2.611494">
        <ele>172.0</ele>
        <time>2020-03-08T09:05:23Z</time>
      </trkpt>
      <trkpt lat="43.166078" lon="2.611382">
        <ele>172.1</ele>
        <time>2020-03-08T09:05:31Z</time>
      </trkpt>
      <trkpt lat="43.166133" lon="2.611260">
        <ele>172.2</ele>
        <time>2020-03-08T09:05:42Z</time>
      </trkpt>
      <trkpt lat="43.166206" lon="2.611162">
        <ele>171.3</ele>
        <time>2020-03-08T09:05:50Z</time>
      </trkpt>
      <trkpt lat="43.166233" lon="2.611026">
        <ele>169.6</ele>
        <time>2020-03-08T09:05:59Z</time>
      </trkpt>
      <trkpt lat="43.166266" lon="2.610875">
        <ele>166.8</ele>
        <time>2020-03-08T09:06:09Z</time>
      </trkpt>
      <trkpt lat="43.166309" lon="2.610743">
        <ele>164.8</ele>
        <time>2020-03-08T09:06:18Z</time>
      </trkpt>
      <trkpt lat="43.166295" lon="2.610600">
        <ele>164.1</ele>
        <time>2020-03-08T09:11:01Z</time>
      </trkpt>
      <trkpt lat="43.166199" lon="2.610544">
        <ele>164.1</ele>
        <time>2020-03-08T09:11:15Z</time>
      </trkpt>
      <trkpt lat="43.166075" lon="2.610477">
        <ele>166.6</ele>
        <time>2020-03-08T09:11:29Z</time>
      </trkpt>
      <trkpt lat="43.165957" lon="2.610387">
        <ele>166.6</ele>
        <time>2020-03-08T09:11:38Z</time>
      </trkpt>
      <trkpt lat="43.165847" lon="2.610320">
        <ele>167.5</ele>
        <time>2020-03-08T09:11:48Z</time>
      </trkpt>
      <trkpt lat="43.165733" lon="2.610259">
        <ele>170.3</ele>
        <time>2020-03-08T09:12:01Z</time>
      </trkpt>
      <trkpt lat="43.165633" lon="2.610214">
        <ele>171.9</ele>
        <time>2020-03-08T09:12:11Z</time>
      </trkpt>
      <trkpt lat="43.165535" lon="2.610166">
        <ele>172.7</ele>
        <time>2020-03-08T09:12:21Z</time>
      </trkpt>
      <trkpt lat="43.165411" lon="2.610113">
        <ele>173.4</ele>
        <time>2020-03-08T09:12:31Z</time>
      </trkpt>
      <trkpt lat="43.165290" lon="2.610094">
        <ele>174.3</ele>
        <time>2020-03-08T09:12:40Z</time>
      </trkpt>
      <trkpt lat="43.165185" lon="2.610174">
        <ele>174.3</ele>
        <time>2020-03-08T09:12:50Z</time>
      </trkpt>
      <trkpt lat="43.165065" lon="2.610186">
        <ele>178.2</ele>
        <time>2020-03-08T09:13:06Z</time>
      </trkpt>
      <trkpt lat="43.164942" lon="2.610203">
        <ele>179.8</ele>
        <time>2020-03-08T09:13:21Z</time>
      </trkpt>
      <trkpt lat="43.164808" lon="2.610178">
        <ele>181.3</ele>
        <time>2020-03-08T09:13:33Z</time>
      </trkpt>
      <trkpt lat="43.164691" lon="2.610193">
        <ele>182.1</ele>
        <time>2020-03-08T09:13:44Z</time>
      </trkpt>
      <trkpt lat="43.164579" lon="2.610199">
        <ele>183.9</ele>
        <time>2020-03-08T09:13:55Z</time>
      </trkpt>
      <trkpt lat="43.164471" lon="2.610234">
        <ele>184.7</ele>
        <time>2020-03-08T09:14:08Z</time>
      </trkpt>
      <trkpt lat="43.164339" lon="2.610252">
        <ele>186.3</ele>
        <time>2020-03-08T09:14:20Z</time>
      </trkpt>
      <trkpt lat="43.164225" lon="2.610250">
        <ele>188.1</ele>
        <time>2020-03-08T09:14:32Z</time>
      </trkpt>
      <trkpt lat="43.164117" lon="2.610282">
        <ele>189.7</ele>
        <time>2020-03-08T09:14:44Z</time>
      </trkpt>
      <trkpt lat="43.164012" lon="2.610429">
        <ele>190.6</ele>
        <time>2020-03-08T09:14:59Z</time>
      </trkpt>
      <trkpt lat="43.163909" lon="2.610598">
        <ele>193.2</ele>
        <time>2020-03-08T09:15:13Z</time>
      </trkpt>
      <trkpt lat="43.163789" lon="2.610670">
        <ele>194.9</ele>
        <time>2020-03-08T09:15:28Z</time>
      </trkpt>
      <trkpt lat="43.163689" lon="2.610700">
        <ele>196.6</ele>
        <time>2020-03-08T09:15:44Z</time>
      </trkpt>
      <trkpt lat="43.163594" lon="2.610731">
        <ele>197.4</ele>
        <time>2020-03-08T09:15:57Z</time>
      </trkpt>
      <trkpt lat="43.163478" lon="2.610756">
        <ele>199.1</ele>
        <time>2020-03-08T09:16:10Z</time>
      </trkpt>
      <trkpt lat="43.163384" lon="2.610876">
        <ele>199.9</ele>
        <time>2020-03-08T09:16:22Z</time>
      </trkpt>
      <trkpt lat="43.163283" lon="2.610941">
        <ele>201.5</ele>
        <time>2020-03-08T09:16:35Z</time>
      </trkpt>
      <trkpt lat="43.163182" lon="2.611026">
        <ele>203.3</ele>
        <time>2020-03-08T09:16:52Z</time>
      </trkpt>
      <trkpt lat="43.163075" lon="2.611124">
        <ele>204.4</ele>
        <time>2020-03-08T09:17:09Z</time>
      </trkpt>
      <trkpt lat="43.162962" lon="2.611195">
        <ele>206.0</ele>
        <time>2020-03-08T09:17:21Z</time>
      </trkpt>
      <trkpt lat="43.162850" lon="2.611234">
        <ele>207.4</ele>
        <time>2020-03-08T09:17:34Z</time>
      </trkpt>
      <trkpt lat="43.162739" lon="2.611309">
        <ele>208.8</ele>
        <time>2020-03-08T09:17:50Z</time>
      </trkpt>
      <trkpt lat="43.162605" lon="2.611347">
        <ele>210.3</ele>
        <time>2020-03-08T09:18:05Z</time>
      </trkpt>
      <trkpt lat="43.162483" lon="2.611390">
        <ele>212.7</ele>
        <time>2020-03-08T09:18:18Z</time>
      </trkpt>
      <trkpt lat="43.162375" lon="2.611430">
        <ele>214.2</ele>
        <time>2020-03-08T09:18:31Z</time>
      </trkpt>
      <trkpt lat="43.162282" lon="2.611409">
        <ele>215.0</ele>
        <time>2020-03-08T09:18:42Z</time>
      </trkpt>
      <trkpt lat="43.162187" lon="2.611407">
        <ele>216.4</ele>
        <time>2020-03-08T09:18:53Z</time>
      </trkpt>
      <trkpt lat="43.162096" lon="2.611348">
        <ele>217.2</ele>
        <time>2020-03-08T09:19:05Z</time>
      </trkpt>
      <trkpt lat="43.162003" lon="2.611281">
        <ele>218.8</ele>
        <time>2020-03-08T09:19:18Z</time>
      </trkpt>
      <trkpt lat="43.161896" lon="2.611188">
        <ele>220.4</ele>
        <time>2020-03-08T09:19:30Z</time>
      </trkpt>
      <trkpt lat="43.161768" lon="2.611140">
        <ele>221.3</ele>
        <time>2020-03-08T09:19:42Z</time>
      </trkpt>
      <trkpt lat="43.161662" lon="2.611194">
        <ele>223.6</ele>
        <time>2020-03-08T09:19:56Z</time>
      </trkpt>
      <trkpt lat="43.161568" lon="2.611316">
        <ele>225.4</ele>
        <time>2020-03-08T09:20:11Z</time>
      </trkpt>
      <trkpt lat="43.161475" lon="2.611388">
        <ele>227.2</ele>
        <time>2020-03-08T09:20:26Z</time>
      </trkpt>
      <trkpt lat="43.161367" lon="2.611473">
        <ele>229.7</ele>
        <time>2020-03-08T09:20:41Z</time>
      </trkpt>
      <trkpt lat="43.161261" lon="2.611608">
        <ele>231.5</ele>
        <time>2020-03-08T09:20:52Z</time>
      </trkpt>
      <trkpt lat="43.161177" lon="2.611698">
        <ele>234.2</ele>
        <time>2020-03-08T09:21:06Z</time>
      </trkpt>
      <trkpt lat="43.161080" lon="2.611719">
        <ele>235.0</ele>
        <time>2020-03-08T09:21:19Z</time>
      </trkpt>
      <trkpt lat="43.160979" lon="2.611744">
        <ele>236.0</ele>
        <time>2020-03-08T09:21:32Z</time>
      </trkpt>
      <trkpt lat="43.160878" lon="2.611808">
        <ele>238.1</ele>
        <time>2020-03-08T09:21:43Z</time>
      </trkpt>
      <trkpt lat="43.160779" lon="2.611830">
        <ele>239.8</ele>
        <time>2020-03-08T09:21:54Z</time>
      </trkpt>
      <trkpt lat="43.160689" lon="2.611751">
        <ele>241.6</ele>
        <time>2020-03-08T09:22:07Z</time>
      </trkpt>
      <trkpt lat="43.160584" lon="2.611675">
        <ele>243.3</ele>
        <time>2020-03-08T09:22:18Z</time>
      </trkpt>
      <trkpt lat="43.160447" lon="2.611616">
        <ele>244.9</ele>
        <time>2020-03-08T09:22:30Z</time>
      </trkpt>
      <trkpt lat="43.160328" lon="2.611589">
        <ele>246.8</ele>
        <time>2020-03-08T09:22:41Z</time>
      </trkpt>
      <trkpt lat="43.160239" lon="2.611546">
        <ele>248.5</ele>
        <time>2020-03-08T09:22:52Z</time>
      </trkpt>
      <trkpt lat="43.160109" lon="2.611482">
        <ele>249.3</ele>
        <time>2020-03-08T09:23:05Z</time>
      </trkpt>
      <trkpt lat="43.159998" lon="2.611448">
        <ele>250.1</ele>
        <time>2020-03-08T09:23:16Z</time>
      </trkpt>
      <trkpt lat="43.159914" lon="2.611376">
        <ele>251.0</ele>
        <time>2020-03-08T09:23:27Z</time>
      </trkpt>
      <trkpt lat="43.159848" lon="2.611270">
        <ele>252.5</ele>
        <time>2020-03-08T09:23:39Z</time>
      </trkpt>
      <trkpt lat="43.159738" lon="2.611231">
        <ele>254.1</ele>
        <time>2020-03-08T09:23:51Z</time>
      </trkpt>
      <trkpt lat="43.159628" lon="2.611300">
        <ele>255.8</ele>
        <time>2020-03-08T09:24:05Z</time>
      </trkpt>
      <trkpt lat="43.159534" lon="2.611317">
        <ele>256.7</ele>
        <time>2020-03-08T09:24:17Z</time>
      </trkpt>
      <trkpt lat="43.159410" lon="2.611301">
        <ele>258.5</ele>
        <time>2020-03-08T09:24:31Z</time>
      </trkpt>
      <trkpt lat="43.159311" lon="2.611233">
        <ele>259.3</ele>
        <time>2020-03-08T09:24:42Z</time>
      </trkpt>
      <trkpt lat="43.159209" lon="2.611221">
        <ele>259.3</ele>
        <time>2020-03-08T09:24:53Z</time>
      </trkpt>
      <trkpt lat="43.159107" lon="2.611234">
        <ele>260.1</ele>
        <time>2020-03-08T09:25:04Z</time>
      </trkpt>
      <trkpt lat="43.158998" lon="2.611204">
        <ele>261.7</ele>
        <time>2020-03-08T09:25:16Z</time>
      </trkpt>
      <trkpt lat="43.158884" lon="2.611201">
        <ele>263.5</ele>
        <time>2020-03-08T09:25:28Z</time>
      </trkpt>
      <trkpt lat="43.158781" lon="2.611120">
        <ele>263.5</ele>
        <time>2020-03-08T09:25:42Z</time>
      </trkpt>
      <trkpt lat="43.158679" lon="2.611071">
        <ele>265.3</ele>
        <time>2020-03-08T09:25:54Z</time>
      </trkpt>
      <trkpt lat="43.158594" lon="2.611001">
        <ele>266.2</ele>
        <time>2020-03-08T09:26:03Z</time>
      </trkpt>
      <trkpt lat="43.158500" lon="2.610963">
        <ele>267.0</ele>
        <time>2020-03-08T09:26:12Z</time>
      </trkpt>
      <trkpt lat="43.158401" lon="2.610958">
        <ele>267.9</ele>
        <time>2020-03-08T09:26:24Z</time>
      </trkpt>
      <trkpt lat="43.158308" lon="2.610976">
        <ele>269.5</ele>
        <time>2020-03-08T09:26:35Z</time>
      </trkpt>
      <trkpt lat="43.158213" lon="2.610961">
        <ele>270.3</ele>
        <time>2020-03-08T09:26:46Z</time>
      </trkpt>
      <trkpt lat="43.158116" lon="2.610983">
        <ele>273.0</ele>
        <time>2020-03-08T09:26:59Z</time>
      </trkpt>
      <trkpt lat="43.158007" lon="2.610968">
        <ele>274.0</ele>
        <time>2020-03-08T09:27:10Z</time>
      </trkpt>
      <trkpt lat="43.157894" lon="2.610984">
        <ele>275.9</ele>
        <time>2020-03-08T09:27:23Z</time>
      </trkpt>
      <trkpt lat="43.157786" lon="2.611016">
        <ele>277.5</ele>
        <time>2020-03-08T09:27:35Z</time>
      </trkpt>
      <trkpt lat="43.157693" lon="2.610972">
        <ele>278.3</ele>
        <time>2020-03-08T09:27:47Z</time>
      </trkpt>
      <trkpt lat="43.157597" lon="2.610932">
        <ele>279.1</ele>
        <time>2020-03-08T09:27:58Z</time>
      </trkpt>
      <trkpt lat="43.157496" lon="2.610852">
        <ele>280.7</ele>
        <time>2020-03-08T09:28:09Z</time>
      </trkpt>
      <trkpt lat="43.157403" lon="2.610798">
        <ele>281.5</ele>
        <time>2020-03-08T09:28:22Z</time>
      </trkpt>
      <trkpt lat="43.157381" lon="2.610649">
        <ele>284.4</ele>
        <time>2020-03-08T09:28:35Z</time>
      </trkpt>
      <trkpt lat="43.157295" lon="2.610488">
        <ele>285.2</ele>
        <time>2020-03-08T09:28:48Z</time>
      </trkpt>
      <trkpt lat="43.157293" lon="2.610499">
        <ele>286.0</ele>
        <time>2020-03-08T09:30:36Z</time>
      </trkpt>
      <trkpt lat="43.157291" lon="2.610449">
        <ele>286.2</ele>
        <time>2020-03-08T09:31:39Z</time>
      </trkpt>
      <trkpt lat="43.157195" lon="2.610364">
        <ele>287.3</ele>
        <time>2020-03-08T09:31:51Z</time>
      </trkpt>
      <trkpt lat="43.157121" lon="2.610265">
        <ele>289.0</ele>
        <time>2020-03-08T09:32:03Z</time>
      </trkpt>
      <trkpt lat="43.156975" lon="2.610222">
        <ele>290.5</ele>
        <time>2020-03-08T09:32:21Z</time>
      </trkpt>
      <trkpt lat="43.156869" lon="2.610193">
        <ele>291.4</ele>
        <time>2020-03-08T09:32:34Z</time>
      </trkpt>
      <trkpt lat="43.156723" lon="2.610077">
        <ele>292.9</ele>
        <time>2020-03-08T09:32:47Z</time>
      </trkpt>
      <trkpt lat="43.156608" lon="2.610102">
        <ele>293.6</ele>
        <time>2020-03-08T09:32:58Z</time>
      </trkpt>
      <trkpt lat="43.156515" lon="2.610196">
        <ele>295.3</ele>
        <time>2020-03-08T09:33:09Z</time>
      </trkpt>
      <trkpt lat="43.156420" lon="2.610305">
        <ele>296.8</ele>
        <time>2020-03-08T09:33:22Z</time>
      </trkpt>
      <trkpt lat="43.156304" lon="2.610379">
        <ele>297.6</ele>
        <time>2020-03-08T09:33:35Z</time>
      </trkpt>
      <trkpt lat="43.156184" lon="2.610424">
        <ele>298.3</ele>
        <time>2020-03-08T09:33:48Z</time>
      </trkpt>
      <trkpt lat="43.156072" lon="2.610486">
        <ele>299.2</ele>
        <time>2020-03-08T09:33:59Z</time>
      </trkpt>
      <trkpt lat="43.155972" lon="2.610543">
        <ele>300.8</ele>
        <time>2020-03-08T09:34:14Z</time>
      </trkpt>
      <trkpt lat="43.155874" lon="2.610627">
        <ele>302.5</ele>
        <time>2020-03-08T09:34:26Z</time>
      </trkpt>
      <trkpt lat="43.155788" lon="2.610637">
        <ele>304.2</ele>
        <time>2020-03-08T09:34:41Z</time>
      </trkpt>
      <trkpt lat="43.155693" lon="2.610594">
        <ele>306.0</ele>
        <time>2020-03-08T09:34:53Z</time>
      </trkpt>
      <trkpt lat="43.155601" lon="2.610520">
        <ele>307.6</ele>
        <time>2020-03-08T09:35:10Z</time>
      </trkpt>
      <trkpt lat="43.155476" lon="2.610473">
        <ele>309.2</ele>
        <time>2020-03-08T09:35:26Z</time>
      </trkpt>
      <trkpt lat="43.155328" lon="2.610435">
        <ele>311.8</ele>
        <time>2020-03-08T09:35:41Z</time>
      </trkpt>
      <trkpt lat="43.155205" lon="2.610485">
        <ele>311.6</ele>
        <time>2020-03-08T09:35:58Z</time>
      </trkpt>
      <trkpt lat="43.155100" lon="2.610625">
        <ele>313.3</ele>
        <time>2020-03-08T09:36:12Z</time>
      </trkpt>
      <trkpt lat="43.154994" lon="2.610822">
        <ele>314.0</ele>
        <time>2020-03-08T09:36:27Z</time>
      </trkpt>
      <trkpt lat="43.154897" lon="2.610936">
        <ele>314.9</ele>
        <time>2020-03-08T09:36:40Z</time>
      </trkpt>
      <trkpt lat="43.154787" lon="2.611117">
        <ele>315.7</ele>
        <time>2020-03-08T09:36:57Z</time>
      </trkpt>
      <trkpt lat="43.154756" lon="2.611312">
        <ele>316.5</ele>
        <time>2020-03-08T09:37:10Z</time>
      </trkpt>
      <trkpt lat="43.154691" lon="2.611410">
        <ele>318.2</ele>
        <time>2020-03-08T09:37:27Z</time>
      </trkpt>
      <trkpt lat="43.154587" lon="2.611506">
        <ele>320.0</ele>
        <time>2020-03-08T09:37:41Z</time>
      </trkpt>
      <trkpt lat="43.154491" lon="2.611683">
        <ele>321.8</ele>
        <time>2020-03-08T09:37:59Z</time>
      </trkpt>
      <trkpt lat="43.154446" lon="2.611783">
        <ele>322.4</ele>
        <time>2020-03-08T09:38:27Z</time>
      </trkpt>
      <trkpt lat="43.154351" lon="2.611794">
        <ele>323.6</ele>
        <time>2020-03-08T09:38:41Z</time>
      </trkpt>
      <trkpt lat="43.154246" lon="2.611744">
        <ele>324.5</ele>
        <time>2020-03-08T09:38:54Z</time>
      </trkpt>
      <trkpt lat="43.154103" lon="2.611753">
        <ele>326.3</ele>
        <time>2020-03-08T09:39:10Z</time>
      </trkpt>
      <trkpt lat="43.153970" lon="2.611751">
        <ele>328.5</ele>
        <time>2020-03-08T09:39:26Z</time>
      </trkpt>
      <trkpt lat="43.153859" lon="2.611734">
        <ele>330.9</ele>
        <time>2020-03-08T09:39:41Z</time>
      </trkpt>
      <trkpt lat="43.153729" lon="2.611717">
        <ele>333.8</ele>
        <time>2020-03-08T09:39:58Z</time>
      </trkpt>
      <trkpt lat="43.153610" lon="2.611704">
        <ele>337.4</ele>
        <time>2020-03-08T09:40:15Z</time>
      </trkpt>
      <trkpt lat="43.153482" lon="2.611793">
        <ele>340.5</ele>
        <time>2020-03-08T09:40:33Z</time>
      </trkpt>
      <trkpt lat="43.153377" lon="2.611962">
        <ele>341.9</ele>
        <time>2020-03-08T09:40:51Z</time>
      </trkpt>
      <trkpt lat="43.153274" lon="2.612236">
        <ele>343.4</ele>
        <time>2020-03-08T09:41:08Z</time>
      </trkpt>
      <trkpt lat="43.153199" lon="2.612431">
        <ele>345.9</ele>
        <time>2020-03-08T09:41:26Z</time>
      </trkpt>
      <trkpt lat="43.153122" lon="2.612647">
        <ele>348.2</ele>
        <time>2020-03-08T09:41:44Z</time>
      </trkpt>
      <trkpt lat="43.153041" lon="2.612757">
        <ele>349.7</ele>
        <time>2020-03-08T09:42:01Z</time>
      </trkpt>
      <trkpt lat="43.153013" lon="2.612918">
        <ele>352.9</ele>
        <time>2020-03-08T09:42:19Z</time>
      </trkpt>
      <trkpt lat="43.152991" lon="2.613050">
        <ele>355.5</ele>
        <time>2020-03-08T09:42:36Z</time>
      </trkpt>
      <trkpt lat="43.152890" lon="2.613105">
        <ele>355.3</ele>
        <time>2020-03-08T09:42:49Z</time>
      </trkpt>
      <trkpt lat="43.152790" lon="2.613214">
        <ele>357.9</ele>
        <time>2020-03-08T09:43:06Z</time>
      </trkpt>
      <trkpt lat="43.152678" lon="2.613266">
        <ele>360.3</ele>
        <time>2020-03-08T09:43:23Z</time>
      </trkpt>
      <trkpt lat="43.152577" lon="2.613278">
        <ele>362.8</ele>
        <time>2020-03-08T09:43:37Z</time>
      </trkpt>
      <trkpt lat="43.152470" lon="2.613298">
        <ele>366.0</ele>
        <time>2020-03-08T09:43:54Z</time>
      </trkpt>
      <trkpt lat="43.152353" lon="2.613198">
        <ele>369.1</ele>
        <time>2020-03-08T09:44:11Z</time>
      </trkpt>
      <trkpt lat="43.152252" lon="2.613223">
        <ele>373.0</ele>
        <time>2020-03-08T09:44:32Z</time>
      </trkpt>
      <trkpt lat="43.152139" lon="2.613222">
        <ele>374.6</ele>
        <time>2020-03-08T09:44:52Z</time>
      </trkpt>
      <trkpt lat="43.152029" lon="2.613251">
        <ele>378.0</ele>
        <time>2020-03-08T09:45:08Z</time>
      </trkpt>
      <trkpt lat="43.151922" lon="2.613262">
        <ele>382.0</ele>
        <time>2020-03-08T09:45:29Z</time>
      </trkpt>
      <trkpt lat="43.151983" lon="2.613154">
        <ele>383.4</ele>
        <time>2020-03-08T09:45:46Z</time>
      </trkpt>
      <trkpt lat="43.152061" lon="2.612967">
        <ele>384.8</ele>
        <time>2020-03-08T09:46:03Z</time>
      </trkpt>
      <trkpt lat="43.151991" lon="2.612930">
        <ele>386.1</ele>
        <time>2020-03-08T09:46:20Z</time>
      </trkpt>
      <trkpt lat="43.151881" lon="2.612912">
        <ele>388.7</ele>
        <time>2020-03-08T09:46:38Z</time>
      </trkpt>
      <trkpt lat="43.151766" lon="2.612900">
        <ele>390.9</ele>
        <time>2020-03-08T09:46:57Z</time>
      </trkpt>
      <trkpt lat="43.151623" lon="2.612913">
        <ele>392.5</ele>
        <time>2020-03-08T09:47:15Z</time>
      </trkpt>
      <trkpt lat="43.151471" lon="2.612888">
        <ele>394.8</ele>
        <time>2020-03-08T09:47:31Z</time>
      </trkpt>
      <trkpt lat="43.151351" lon="2.612935">
        <ele>397.3</ele>
        <time>2020-03-08T09:47:48Z</time>
      </trkpt>
      <trkpt lat="43.151247" lon="2.613007">
        <ele>399.5</ele>
        <time>2020-03-08T09:48:07Z</time>
      </trkpt>
      <trkpt lat="43.151153" lon="2.613101">
        <ele>401.0</ele>
        <time>2020-03-08T09:48:22Z</time>
      </trkpt>
      <trkpt lat="43.151021" lon="2.613147">
        <ele>403.6</ele>
        <time>2020-03-08T09:48:44Z</time>
      </trkpt>
      <trkpt lat="43.150924" lon="2.613193">
        <ele>405.4</ele>
        <time>2020-03-08T09:49:01Z</time>
      </trkpt>
      <trkpt lat="43.150792" lon="2.613313">
        <ele>407.9</ele>
        <time>2020-03-08T09:49:17Z</time>
      </trkpt>
      <trkpt lat="43.150717" lon="2.613486">
        <ele>409.5</ele>
        <time>2020-03-08T09:49:34Z</time>
      </trkpt>
      <trkpt lat="43.150617" lon="2.613665">
        <ele>411.1</ele>
        <time>2020-03-08T09:49:47Z</time>
      </trkpt>
      <trkpt lat="43.150488" lon="2.613879">
        <ele>412.8</ele>
        <time>2020-03-08T09:50:01Z</time>
      </trkpt>
      <trkpt lat="43.150378" lon="2.614025">
        <ele>415.1</ele>
        <time>2020-03-08T09:50:18Z</time>
      </trkpt>
      <trkpt lat="43.150305" lon="2.614147">
        <ele>416.8</ele>
        <time>2020-03-08T09:50:34Z</time>
      </trkpt>
      <trkpt lat="43.150298" lon="2.614002">
        <ele>419.1</ele>
        <time>2020-03-08T09:50:55Z</time>
      </trkpt>
      <trkpt lat="43.150271" lon="2.613837">
        <ele>421.5</ele>
        <time>2020-03-08T09:51:13Z</time>
      </trkpt>
      <trkpt lat="43.150265" lon="2.613633">
        <ele>422.9</ele>
        <time>2020-03-08T09:51:31Z</time>
      </trkpt>
      <trkpt lat="43.150286" lon="2.613441">
        <ele>424.7</ele>
        <time>2020-03-08T09:51:46Z</time>
      </trkpt>
      <trkpt lat="43.150176" lon="2.613339">
        <ele>427.3</ele>
        <time>2020-03-08T09:52:02Z</time>
      </trkpt>
      <trkpt lat="43.150120" lon="2.613417">
        <ele>428.9</ele>
        <time>2020-03-08T09:52:17Z</time>
      </trkpt>
      <trkpt lat="43.150050" lon="2.613561">
        <ele>430.6</ele>
        <time>2020-03-08T09:52:33Z</time>
      </trkpt>
      <trkpt lat="43.150008" lon="2.613665">
        <ele>432.4</ele>
        <time>2020-03-08T09:52:50Z</time>
      </trkpt>
      <trkpt lat="43.149952" lon="2.613795">
        <ele>434.0</ele>
        <time>2020-03-08T09:53:06Z</time>
      </trkpt>
      <trkpt lat="43.149924" lon="2.613884">
        <ele>437.3</ele>
        <time>2020-03-08T09:53:25Z</time>
      </trkpt>
      <trkpt lat="43.149794" lon="2.614070">
        <ele>439.4</ele>
        <time>2020-03-08T09:53:44Z</time>
      </trkpt>
      <trkpt lat="43.149701" lon="2.614243">
        <ele>442.0</ele>
        <time>2020-03-08T09:53:59Z</time>
      </trkpt>
      <trkpt lat="43.149651" lon="2.614335">
        <ele>443.5</ele>
        <time>2020-03-08T09:54:15Z</time>
      </trkpt>
      <trkpt lat="43.149589" lon="2.614476">
        <ele>446.1</ele>
        <time>2020-03-08T09:54:31Z</time>
      </trkpt>
      <trkpt lat="43.149519" lon="2.614574">
        <ele>448.7</ele>
        <time>2020-03-08T09:54:51Z</time>
      </trkpt>
      <trkpt lat="43.149439" lon="2.614705">
        <ele>450.2</ele>
        <time>2020-03-08T09:55:06Z</time>
      </trkpt>
      <trkpt lat="43.149346" lon="2.614818">
        <ele>451.8</ele>
        <time>2020-03-08T09:55:20Z</time>
      </trkpt>
      <trkpt lat="43.149271" lon="2.614950">
        <ele>455.1</ele>
        <time>2020-03-08T09:55:41Z</time>
      </trkpt>
      <trkpt lat="43.149169" lon="2.615027">
        <ele>456.8</ele>
        <time>2020-03-08T09:56:00Z</time>
      </trkpt>
      <trkpt lat="43.149029" lon="2.615175">
        <ele>459.3</ele>
        <time>2020-03-08T09:56:19Z</time>
      </trkpt>
      <trkpt lat="43.148928" lon="2.615284">
        <ele>462.1</ele>
        <time>2020-03-08T09:56:38Z</time>
      </trkpt>
      <trkpt lat="43.148850" lon="2.615380">
        <ele>464.6</ele>
        <time>2020-03-08T09:57:02Z</time>
      </trkpt>
      <trkpt lat="43.148785" lon="2.615393">
        <ele>468.4</ele>
        <time>2020-03-08T09:57:22Z</time>
      </trkpt>
      <trkpt lat="43.148697" lon="2.615426">
        <ele>470.1</ele>
        <time>2020-03-08T09:57:40Z</time>
      </trkpt>
      <trkpt lat="43.148593" lon="2.615462">
        <ele>473.4</ele>
        <time>2020-03-08T09:57:59Z</time>
      </trkpt>
      <trkpt lat="43.148495" lon="2.615512">
        <ele>476.4</ele>
        <time>2020-03-08T09:58:15Z</time>
      </trkpt>
      <trkpt lat="43.148416" lon="2.615602">
        <ele>477.7</ele>
        <time>2020-03-08T09:58:31Z</time>
      </trkpt>
      <trkpt lat="43.148312" lon="2.615787">
        <ele>478.5</ele>
        <time>2020-03-08T09:58:49Z</time>
      </trkpt>
      <trkpt lat="43.148267" lon="2.615830">
        <ele>481.0</ele>
        <time>2020-03-08T09:59:08Z</time>
      </trkpt>
      <trkpt lat="43.148322" lon="2.615737">
        <ele>481.0</ele>
        <time>2020-03-08T09:59:21Z</time>
      </trkpt>
      <trkpt lat="43.148358" lon="2.615604">
        <ele>480.9</ele>
        <time>2020-03-08T09:59:35Z</time>
      </trkpt>
      <trkpt lat="43.148365" lon="2.615407">
        <ele>481.7</ele>
        <time>2020-03-08T09:59:53Z</time>
      </trkpt>
      <trkpt lat="43.148359" lon="2.615181">
        <ele>481.6</ele>
        <time>2020-03-08T10:00:10Z</time>
      </trkpt>
      <trkpt lat="43.148397" lon="2.614969">
        <ele>482.3</ele>
        <time>2020-03-08T10:00:28Z</time>
      </trkpt>
      <trkpt lat="43.148382" lon="2.614798">
        <ele>483.7</ele>
        <time>2020-03-08T10:00:45Z</time>
      </trkpt>
      <trkpt lat="43.148327" lon="2.614846">
        <ele>485.1</ele>
        <time>2020-03-08T10:01:03Z</time>
      </trkpt>
      <trkpt lat="43.148258" lon="2.614944">
        <ele>487.0</ele>
        <time>2020-03-08T10:01:20Z</time>
      </trkpt>
      <trkpt lat="43.148194" lon="2.615043">
        <ele>487.7</ele>
        <time>2020-03-08T10:01:37Z</time>
      </trkpt>
      <trkpt lat="43.148125" lon="2.615212">
        <ele>489.3</ele>
        <time>2020-03-08T10:01:55Z</time>
      </trkpt>
      <trkpt lat="43.148074" lon="2.615338">
        <ele>491.1</ele>
        <time>2020-03-08T10:02:09Z</time>
      </trkpt>
      <trkpt lat="43.148000" lon="2.615466">
        <ele>492.5</ele>
        <time>2020-03-08T10:02:26Z</time>
      </trkpt>
      <trkpt lat="43.147872" lon="2.615638">
        <ele>494.2</ele>
        <time>2020-03-08T10:02:44Z</time>
      </trkpt>
      <trkpt lat="43.147865" lon="2.615594">
        <ele>495.1</ele>
        <time>2020-03-08T10:03:01Z</time>
      </trkpt>
      <trkpt lat="43.147899" lon="2.615431">
        <ele>496.6</ele>
        <time>2020-03-08T10:03:17Z</time>
      </trkpt>
      <trkpt lat="43.147910" lon="2.615198">
        <ele>497.3</ele>
        <time>2020-03-08T10:03:35Z</time>
      </trkpt>
      <trkpt lat="43.147860" lon="2.615202">
        <ele>498.0</ele>
        <time>2020-03-08T10:03:50Z</time>
      </trkpt>
      <trkpt lat="43.147785" lon="2.615322">
        <ele>499.6</ele>
        <time>2020-03-08T10:04:06Z</time>
      </trkpt>
      <trkpt lat="43.147706" lon="2.615457">
        <ele>501.3</ele>
        <time>2020-03-08T10:04:21Z</time>
      </trkpt>
      <trkpt lat="43.147630" lon="2.615612">
        <ele>502.8</ele>
        <time>2020-03-08T10:04:38Z</time>
      </trkpt>
      <trkpt lat="43.147541" lon="2.615736">
        <ele>504.4</ele>
        <time>2020-03-08T10:04:53Z</time>
      </trkpt>
      <trkpt lat="43.147482" lon="2.615876">
        <ele>506.0</ele>
        <time>2020-03-08T10:05:10Z</time>
      </trkpt>
      <trkpt lat="43.147384" lon="2.616041">
        <ele>508.6</ele>
        <time>2020-03-08T10:05:30Z</time>
      </trkpt>
      <trkpt lat="43.147310" lon="2.616162">
        <ele>510.2</ele>
        <time>2020-03-08T10:05:50Z</time>
      </trkpt>
      <trkpt lat="43.147243" lon="2.616252">
        <ele>511.1</ele>
        <time>2020-03-08T10:06:16Z</time>
      </trkpt>
      <trkpt lat="43.147170" lon="2.616347">
        <ele>512.7</ele>
        <time>2020-03-08T10:06:29Z</time>
      </trkpt>
      <trkpt lat="43.147070" lon="2.616490">
        <ele>515.4</ele>
        <time>2020-03-08T10:06:43Z</time>
      </trkpt>
      <trkpt lat="43.146991" lon="2.616607">
        <ele>518.1</ele>
        <time>2020-03-08T10:07:01Z</time>
      </trkpt>
      <trkpt lat="43.146890" lon="2.616713">
        <ele>519.9</ele>
        <time>2020-03-08T10:07:20Z</time>
      </trkpt>
      <trkpt lat="43.146828" lon="2.616880">
        <ele>520.9</ele>
        <time>2020-03-08T10:07:36Z</time>
      </trkpt>
      <trkpt lat="43.146733" lon="2.617042">
        <ele>522.6</ele>
        <time>2020-03-08T10:07:53Z</time>
      </trkpt>
      <trkpt lat="43.146638" lon="2.617218">
        <ele>526.2</ele>
        <time>2020-03-08T10:08:10Z</time>
      </trkpt>
      <trkpt lat="43.146560" lon="2.617359">
        <ele>528.6</ele>
        <time>2020-03-08T10:08:27Z</time>
      </trkpt>
      <trkpt lat="43.146492" lon="2.617504">
        <ele>533.1</ele>
        <time>2020-03-08T10:08:45Z</time>
      </trkpt>
      <trkpt lat="43.146413" lon="2.617655">
        <ele>536.4</ele>
        <time>2020-03-08T10:09:04Z</time>
      </trkpt>
      <trkpt lat="43.146332" lon="2.617784">
        <ele>540.5</ele>
        <time>2020-03-08T10:09:25Z</time>
      </trkpt>
      <trkpt lat="43.146239" lon="2.617739">
        <ele>542.5</ele>
        <time>2020-03-08T10:09:38Z</time>
      </trkpt>
      <trkpt lat="43.146168" lon="2.617665">
        <ele>545.3</ele>
        <time>2020-03-08T10:09:53Z</time>
      </trkpt>
      <trkpt lat="43.146088" lon="2.617549">
        <ele>546.8</ele>
        <time>2020-03-08T10:10:06Z</time>
      </trkpt>
      <trkpt lat="43.146040" lon="2.617460">
        <ele>548.4</ele>
        <time>2020-03-08T10:10:19Z</time>
      </trkpt>
      <trkpt lat="43.145965" lon="2.617352">
        <ele>549.3</ele>
        <time>2020-03-08T10:10:35Z</time>
      </trkpt>
      <trkpt lat="43.145881" lon="2.617271">
        <ele>550.0</ele>
        <time>2020-03-08T10:10:48Z</time>
      </trkpt>
      <trkpt lat="43.145812" lon="2.617238">
        <ele>550.9</ele>
        <time>2020-03-08T10:11:33Z</time>
      </trkpt>
      <trkpt lat="43.145770" lon="2.617255">
        <ele>551.9</ele>
        <time>2020-03-08T10:15:32Z</time>
      </trkpt>
      <trkpt lat="43.145763" lon="2.617301">
        <ele>552.0</ele>
        <time>2020-03-08T10:15:50Z</time>
      </trkpt>
      <trkpt lat="43.145803" lon="2.617415">
        <ele>552.0</ele>
        <time>2020-03-08T10:16:03Z</time>
      </trkpt>
      <trkpt lat="43.145837" lon="2.617534">
        <ele>552.1</ele>
        <time>2020-03-08T10:16:14Z</time>
      </trkpt>
      <trkpt lat="43.145869" lon="2.617663">
        <ele>552.1</ele>
        <time>2020-03-08T10:16:23Z</time>
      </trkpt>
      <trkpt lat="43.145888" lon="2.617811">
        <ele>552.2</ele>
        <time>2020-03-08T10:16:32Z</time>
      </trkpt>
      <trkpt lat="43.145911" lon="2.617939">
        <ele>552.2</ele>
        <time>2020-03-08T10:16:40Z</time>
      </trkpt>
      <trkpt lat="43.145901" lon="2.618072">
        <ele>552.3</ele>
        <time>2020-03-08T10:16:48Z</time>
      </trkpt>
      <trkpt lat="43.145881" lon="2.618203">
        <ele>552.3</ele>
        <time>2020-03-08T10:16:57Z</time>
      </trkpt>
      <trkpt lat="43.145886" lon="2.618329">
        <ele>553.2</ele>
        <time>2020-03-08T10:17:06Z</time>
      </trkpt>
      <trkpt lat="43.145906" lon="2.618477">
        <ele>554.2</ele>
        <time>2020-03-08T10:17:18Z</time>
      </trkpt>
      <trkpt lat="43.145889" lon="2.618608">
        <ele>555.1</ele>
        <time>2020-03-08T10:17:29Z</time>
      </trkpt>
      <trkpt lat="43.145878" lon="2.618727">
        <ele>556.9</ele>
        <time>2020-03-08T10:17:41Z</time>
      </trkpt>
      <trkpt lat="43.145888" lon="2.618855">
        <ele>558.6</ele>
        <time>2020-03-08T10:17:52Z</time>
      </trkpt>
      <trkpt lat="43.145905" lon="2.618980">
        <ele>560.3</ele>
        <time>2020-03-08T10:18:02Z</time>
      </trkpt>
      <trkpt lat="43.145930" lon="2.619109">
        <ele>561.1</ele>
        <time>2020-03-08T10:18:12Z</time>
      </trkpt>
      <trkpt lat="43.145967" lon="2.619228">
        <ele>562.1</ele>
        <time>2020-03-08T10:18:21Z</time>
      </trkpt>
      <trkpt lat="43.145995" lon="2.619357">
        <ele>563.1</ele>
        <time>2020-03-08T10:18:31Z</time>
      </trkpt>
      <trkpt lat="43.146027" lon="2.619494">
        <ele>564.8</ele>
        <time>2020-03-08T10:18:41Z</time>
      </trkpt>
      <trkpt lat="43.146046" lon="2.619622">
        <ele>565.7</ele>
        <time>2020-03-08T10:18:50Z</time>
      </trkpt>
      <trkpt lat="43.146037" lon="2.619756">
        <ele>566.6</ele>
        <time>2020-03-08T10:18:59Z</time>
      </trkpt>
      <trkpt lat="43.146059" lon="2.619891">
        <ele>566.6</ele>
        <time>2020-03-08T10:19:09Z</time>
      </trkpt>
      <trkpt lat="43.146090" lon="2.620024">
        <ele>568.4</ele>
        <time>2020-03-08T10:19:18Z</time>
      </trkpt>
      <trkpt lat="43.146100" lon="2.620160">
        <ele>568.5</ele>
        <time>2020-03-08T10:19:27Z</time>
      </trkpt>
      <trkpt lat="43.146100" lon="2.620302">
        <ele>569.3</ele>
        <time>2020-03-08T10:19:36Z</time>
      </trkpt>
      <trkpt lat="43.146118" lon="2.620442">
        <ele>570.2</ele>
        <time>2020-03-08T10:19:45Z</time>
      </trkpt>
      <trkpt lat="43.146118" lon="2.620585">
        <ele>571.2</ele>
        <time>2020-03-08T10:19:55Z</time>
      </trkpt>
      <trkpt lat="43.146113" lon="2.620718">
        <ele>571.2</ele>
        <time>2020-03-08T10:20:04Z</time>
      </trkpt>
      <trkpt lat="43.146153" lon="2.620852">
        <ele>572.1</ele>
        <time>2020-03-08T10:20:14Z</time>
      </trkpt>
      <trkpt lat="43.146191" lon="2.620980">
        <ele>573.9</ele>
        <time>2020-03-08T10:20:24Z</time>
      </trkpt>
      <trkpt lat="43.146202" lon="2.621116">
        <ele>574.0</ele>
        <time>2020-03-08T10:20:33Z</time>
      </trkpt>
      <trkpt lat="43.146214" lon="2.621251">
        <ele>574.0</ele>
        <time>2020-03-08T10:20:42Z</time>
      </trkpt>
      <trkpt lat="43.146208" lon="2.621389">
        <ele>574.0</ele>
        <time>2020-03-08T10:20:51Z</time>
      </trkpt>
      <trkpt lat="43.146196" lon="2.621531">
        <ele>574.1</ele>
        <time>2020-03-08T10:21:01Z</time>
      </trkpt>
      <trkpt lat="43.146230" lon="2.621665">
        <ele>574.1</ele>
        <time>2020-03-08T10:21:11Z</time>
      </trkpt>
      <trkpt lat="43.146260" lon="2.621789">
        <ele>570.7</ele>
        <time>2020-03-08T10:21:20Z</time>
      </trkpt>
      <trkpt lat="43.146281" lon="2.621927">
        <ele>568.9</ele>
        <time>2020-03-08T10:21:29Z</time>
      </trkpt>
      <trkpt lat="43.146300" lon="2.622061">
        <ele>567.2</ele>
        <time>2020-03-08T10:21:37Z</time>
      </trkpt>
      <trkpt lat="43.146306" lon="2.622194">
        <ele>566.5</ele>
        <time>2020-03-08T10:21:45Z</time>
      </trkpt>
      <trkpt lat="43.146306" lon="2.622318">
        <ele>564.9</ele>
        <time>2020-03-08T10:21:55Z</time>
      </trkpt>
      <trkpt lat="43.146310" lon="2.622449">
        <ele>564.2</ele>
        <time>2020-03-08T10:22:03Z</time>
      </trkpt>
      <trkpt lat="43.146313" lon="2.622584">
        <ele>563.4</ele>
        <time>2020-03-08T10:22:11Z</time>
      </trkpt>
      <trkpt lat="43.146318" lon="2.622716">
        <ele>563.5</ele>
        <time>2020-03-08T10:22:19Z</time>
      </trkpt>
      <trkpt lat="43.146318" lon="2.622849">
        <ele>563.6</ele>
        <time>2020-03-08T10:22:28Z</time>
      </trkpt>
      <trkpt lat="43.146312" lon="2.622987">
        <ele>563.7</ele>
        <time>2020-03-08T10:22:37Z</time>
      </trkpt>
      <trkpt lat="43.146292" lon="2.623117">
        <ele>563.7</ele>
        <time>2020-03-08T10:22:46Z</time>
      </trkpt>
      <trkpt lat="43.146263" lon="2.623216">
        <ele>563.8</ele>
        <time>2020-03-08T10:23:08Z</time>
      </trkpt>
      <trkpt lat="43.146247" lon="2.623355">
        <ele>566.1</ele>
        <time>2020-03-08T10:23:22Z</time>
      </trkpt>
      <trkpt lat="43.146263" lon="2.623479">
        <ele>567.1</ele>
        <time>2020-03-08T10:23:31Z</time>
      </trkpt>
      <trkpt lat="43.146275" lon="2.623609">
        <ele>568.0</ele>
        <time>2020-03-08T10:23:42Z</time>
      </trkpt>
      <trkpt lat="43.146284" lon="2.623741">
        <ele>568.8</ele>
        <time>2020-03-08T10:23:52Z</time>
      </trkpt>
      <trkpt lat="43.146292" lon="2.623885">
        <ele>569.8</ele>
        <time>2020-03-08T10:24:07Z</time>
      </trkpt>
      <trkpt lat="43.146276" lon="2.624013">
        <ele>570.6</ele>
        <time>2020-03-08T10:24:16Z</time>
      </trkpt>
      <trkpt lat="43.146269" lon="2.624146">
        <ele>572.2</ele>
        <time>2020-03-08T10:24:25Z</time>
      </trkpt>
      <trkpt lat="43.146262" lon="2.624286">
        <ele>573.1</ele>
        <time>2020-03-08T10:24:34Z</time>
      </trkpt>
      <trkpt lat="43.146262" lon="2.624421">
        <ele>573.9</ele>
        <time>2020-03-08T10:24:43Z</time>
      </trkpt>
      <trkpt lat="43.146263" lon="2.624562">
        <ele>574.8</ele>
        <time>2020-03-08T10:24:52Z</time>
      </trkpt>
      <trkpt lat="43.146272" lon="2.624691">
        <ele>575.7</ele>
        <time>2020-03-08T10:25:00Z</time>
      </trkpt>
      <trkpt lat="43.146277" lon="2.624821">
        <ele>575.7</ele>
        <time>2020-03-08T10:25:11Z</time>
      </trkpt>
      <trkpt lat="43.146273" lon="2.624948">
        <ele>576.7</ele>
        <time>2020-03-08T10:25:20Z</time>
      </trkpt>
      <trkpt lat="43.146261" lon="2.625080">
        <ele>577.5</ele>
        <time>2020-03-08T10:25:29Z</time>
      </trkpt>
      <trkpt lat="43.146266" lon="2.625221">
        <ele>578.5</ele>
        <time>2020-03-08T10:25:38Z</time>
      </trkpt>
      <trkpt lat="43.146285" lon="2.625363">
        <ele>579.3</ele>
        <time>2020-03-08T10:25:47Z</time>
      </trkpt>
      <trkpt lat="43.146306" lon="2.625504">
        <ele>579.3</ele>
        <time>2020-03-08T10:25:56Z</time>
      </trkpt>
      <trkpt lat="43.146344" lon="2.625632">
        <ele>580.2</ele>
        <time>2020-03-08T10:26:05Z</time>
      </trkpt>
      <trkpt lat="43.146378" lon="2.625726">
        <ele>581.3</ele>
        <time>2020-03-08T10:26:33Z</time>
      </trkpt>
      <trkpt lat="43.146355" lon="2.625795">
        <ele>581.3</ele>
        <time>2020-03-08T10:27:05Z</time>
      </trkpt>
      <trkpt lat="43.146418" lon="2.625899">
        <ele>581.4</ele>
        <time>2020-03-08T10:27:13Z</time>
      </trkpt>
      <trkpt lat="43.146475" lon="2.626004">
        <ele>581.3</ele>
        <time>2020-03-08T10:27:20Z</time>
      </trkpt>
      <trkpt lat="43.146539" lon="2.626103">
        <ele>581.3</ele>
        <time>2020-03-08T10:27:27Z</time>
      </trkpt>
      <trkpt lat="43.146608" lon="2.626195">
        <ele>581.3</ele>
        <time>2020-03-08T10:27:34Z</time>
      </trkpt>
      <trkpt lat="43.146679" lon="2.626288">
        <ele>581.3</ele>
        <time>2020-03-08T10:27:41Z</time>
      </trkpt>
      <trkpt lat="43.146730" lon="2.626396">
        <ele>581.3</ele>
        <time>2020-03-08T10:27:48Z</time>
      </trkpt>
      <trkpt lat="43.146749" lon="2.626533">
        <ele>581.3</ele>
        <time>2020-03-08T10:27:55Z</time>
      </trkpt>
      <trkpt lat="43.146761" lon="2.626672">
        <ele>579.0</ele>
        <time>2020-03-08T10:28:02Z</time>
      </trkpt>
      <trkpt lat="43.146790" lon="2.626798">
        <ele>578.2</ele>
        <time>2020-03-08T10:28:09Z</time>
      </trkpt>
      <trkpt lat="43.146852" lon="2.626894">
        <ele>578.3</ele>
        <time>2020-03-08T10:28:17Z</time>
      </trkpt>
      <trkpt lat="43.146939" lon="2.626945">
        <ele>578.3</ele>
        <time>2020-03-08T10:28:25Z</time>
      </trkpt>
      <trkpt lat="43.147032" lon="2.627003">
        <ele>578.3</ele>
        <time>2020-03-08T10:28:34Z</time>
      </trkpt>
      <trkpt lat="43.147128" lon="2.627049">
        <ele>578.3</ele>
        <time>2020-03-08T10:28:42Z</time>
      </trkpt>
      <trkpt lat="43.147201" lon="2.627122">
        <ele>578.4</ele>
        <time>2020-03-08T10:28:49Z</time>
      </trkpt>
      <trkpt lat="43.147217" lon="2.627255">
        <ele>581.6</ele>
        <time>2020-03-08T10:28:57Z</time>
      </trkpt>
      <trkpt lat="43.147205" lon="2.627392">
        <ele>582.6</ele>
        <time>2020-03-08T10:29:05Z</time>
      </trkpt>
      <trkpt lat="43.147215" lon="2.627518">
        <ele>583.4</ele>
        <time>2020-03-08T10:29:13Z</time>
      </trkpt>
      <trkpt lat="43.147293" lon="2.627607">
        <ele>584.2</ele>
        <time>2020-03-08T10:29:24Z</time>
      </trkpt>
      <trkpt lat="43.147377" lon="2.627669">
        <ele>585.9</ele>
        <time>2020-03-08T10:29:33Z</time>
      </trkpt>
      <trkpt lat="43.147476" lon="2.627670">
        <ele>587.9</ele>
        <time>2020-03-08T10:29:42Z</time>
      </trkpt>
      <trkpt lat="43.147562" lon="2.627717">
        <ele>589.9</ele>
        <time>2020-03-08T10:29:52Z</time>
      </trkpt>
      <trkpt lat="43.147645" lon="2.627799">
        <ele>590.7</ele>
        <time>2020-03-08T10:30:02Z</time>
      </trkpt>
      <trkpt lat="43.147720" lon="2.627886">
        <ele>592.5</ele>
        <time>2020-03-08T10:30:13Z</time>
      </trkpt>
      <trkpt lat="43.147779" lon="2.627995">
        <ele>593.5</ele>
        <time>2020-03-08T10:30:26Z</time>
      </trkpt>
      <trkpt lat="43.147834" lon="2.628076">
        <ele>593.5</ele>
        <time>2020-03-08T10:30:59Z</time>
      </trkpt>
      <trkpt lat="43.147850" lon="2.628174">
        <ele>588.1</ele>
        <time>2020-03-08T10:31:18Z</time>
      </trkpt>
      <trkpt lat="43.147808" lon="2.628345">
        <ele>588.1</ele>
        <time>2020-03-08T10:31:34Z</time>
      </trkpt>
      <trkpt lat="43.147759" lon="2.628517">
        <ele>587.3</ele>
        <time>2020-03-08T10:31:59Z</time>
      </trkpt>
      <trkpt lat="43.147694" lon="2.628580">
        <ele>587.8</ele>
        <time>2020-03-08T10:32:12Z</time>
      </trkpt>
      <trkpt lat="43.147592" lon="2.628598">
        <ele>589.5</ele>
        <time>2020-03-08T10:32:23Z</time>
      </trkpt>
      <trkpt lat="43.147518" lon="2.628595">
        <ele>590.8</ele>
        <time>2020-03-08T10:32:33Z</time>
      </trkpt>
      <trkpt lat="43.147432" lon="2.628593">
        <ele>591.2</ele>
        <time>2020-03-08T10:33:14Z</time>
      </trkpt>
      <trkpt lat="43.147485" lon="2.628681">
        <ele>590.6</ele>
        <time>2020-03-08T10:33:22Z</time>
      </trkpt>
      <trkpt lat="43.147571" lon="2.628727">
        <ele>589.4</ele>
        <time>2020-03-08T10:33:30Z</time>
      </trkpt>
      <trkpt lat="43.147658" lon="2.628791">
        <ele>589.5</ele>
        <time>2020-03-08T10:33:39Z</time>
      </trkpt>
      <trkpt lat="43.147752" lon="2.628838">
        <ele>589.4</ele>
        <time>2020-03-08T10:33:48Z</time>
      </trkpt>
      <trkpt lat="43.147826" lon="2.628912">
        <ele>589.4</ele>
        <time>2020-03-08T10:33:56Z</time>
      </trkpt>
      <trkpt lat="43.147842" lon="2.629047">
        <ele>589.5</ele>
        <time>2020-03-08T10:34:04Z</time>
      </trkpt>
      <trkpt lat="43.147868" lon="2.629183">
        <ele>589.5</ele>
        <time>2020-03-08T10:34:13Z</time>
      </trkpt>
      <trkpt lat="43.147843" lon="2.629299">
        <ele>589.5</ele>
        <time>2020-03-08T10:34:22Z</time>
      </trkpt>
      <trkpt lat="43.147806" lon="2.629408">
        <ele>586.1</ele>
        <time>2020-03-08T10:34:37Z</time>
      </trkpt>
      <trkpt lat="43.147798" lon="2.629540">
        <ele>585.3</ele>
        <time>2020-03-08T10:34:46Z</time>
      </trkpt>
      <trkpt lat="43.147785" lon="2.629670">
        <ele>583.6</ele>
        <time>2020-03-08T10:34:54Z</time>
      </trkpt>
      <trkpt lat="43.147750" lon="2.629787">
        <ele>581.2</ele>
        <time>2020-03-08T10:35:04Z</time>
      </trkpt>
      <trkpt lat="43.147718" lon="2.629894">
        <ele>577.6</ele>
        <time>2020-03-08T10:35:16Z</time>
      </trkpt>
      <trkpt lat="43.147701" lon="2.630075">
        <ele>576.9</ele>
        <time>2020-03-08T10:35:28Z</time>
      </trkpt>
      <trkpt lat="43.147661" lon="2.630203">
        <ele>576.9</ele>
        <time>2020-03-08T10:35:40Z</time>
      </trkpt>
      <trkpt lat="43.147578" lon="2.630241">
        <ele>576.9</ele>
        <time>2020-03-08T10:35:48Z</time>
      </trkpt>
      <trkpt lat="43.147501" lon="2.630315">
        <ele>575.3</ele>
        <time>2020-03-08T10:35:56Z</time>
      </trkpt>
      <trkpt lat="43.147441" lon="2.630420">
        <ele>573.6</ele>
        <time>2020-03-08T10:36:07Z</time>
      </trkpt>
      <trkpt lat="43.147388" lon="2.630545">
        <ele>572.0</ele>
        <time>2020-03-08T10:36:16Z</time>
      </trkpt>
      <trkpt lat="43.147344" lon="2.630679">
        <ele>571.2</ele>
        <time>2020-03-08T10:36:25Z</time>
      </trkpt>
      <trkpt lat="43.147274" lon="2.630686">
        <ele>570.3</ele>
        <time>2020-03-08T10:36:34Z</time>
      </trkpt>
      <trkpt lat="43.147187" lon="2.630655">
        <ele>568.7</ele>
        <time>2020-03-08T10:36:43Z</time>
      </trkpt>
      <trkpt lat="43.147095" lon="2.630665">
        <ele>567.9</ele>
        <time>2020-03-08T10:36:52Z</time>
      </trkpt>
      <trkpt lat="43.147014" lon="2.630700">
        <ele>565.5</ele>
        <time>2020-03-08T10:37:59Z</time>
      </trkpt>
      <trkpt lat="43.146943" lon="2.630619">
        <ele>562.9</ele>
        <time>2020-03-08T10:38:11Z</time>
      </trkpt>
      <trkpt lat="43.146844" lon="2.630594">
        <ele>560.1</ele>
        <time>2020-03-08T10:38:23Z</time>
      </trkpt>
      <trkpt lat="43.146750" lon="2.630559">
        <ele>556.5</ele>
        <time>2020-03-08T10:38:35Z</time>
      </trkpt>
      <trkpt lat="43.146665" lon="2.630644">
        <ele>552.9</ele>
        <time>2020-03-08T10:38:52Z</time>
      </trkpt>
      <trkpt lat="43.146537" lon="2.630677">
        <ele>549.2</ele>
        <time>2020-03-08T10:39:08Z</time>
      </trkpt>
      <trkpt lat="43.146449" lon="2.630754">
        <ele>545.6</ele>
        <time>2020-03-08T10:39:26Z</time>
      </trkpt>
      <trkpt lat="43.146384" lon="2.630793">
        <ele>542.5</ele>
        <time>2020-03-08T10:39:50Z</time>
      </trkpt>
      <trkpt lat="43.146321" lon="2.630875">
        <ele>540.0</ele>
        <time>2020-03-08T10:40:40Z</time>
      </trkpt>
      <trkpt lat="43.146245" lon="2.630946">
        <ele>537.3</ele>
        <time>2020-03-08T10:40:56Z</time>
      </trkpt>
      <trkpt lat="43.146155" lon="2.630994">
        <ele>534.4</ele>
        <time>2020-03-08T10:41:09Z</time>
      </trkpt>
      <trkpt lat="43.146057" lon="2.631018">
        <ele>532.7</ele>
        <time>2020-03-08T10:41:19Z</time>
      </trkpt>
      <trkpt lat="43.145974" lon="2.631097">
        <ele>530.8</ele>
        <time>2020-03-08T10:41:31Z</time>
      </trkpt>
      <trkpt lat="43.145890" lon="2.631156">
        <ele>529.1</ele>
        <time>2020-03-08T10:41:43Z</time>
      </trkpt>
      <trkpt lat="43.145802" lon="2.631247">
        <ele>525.8</ele>
        <time>2020-03-08T10:41:55Z</time>
      </trkpt>
      <trkpt lat="43.145719" lon="2.631263">
        <ele>524.0</ele>
        <time>2020-03-08T10:42:03Z</time>
      </trkpt>
      <trkpt lat="43.145619" lon="2.631296">
        <ele>524.1</ele>
        <time>2020-03-08T10:42:12Z</time>
      </trkpt>
      <trkpt lat="43.145525" lon="2.631328">
        <ele>524.1</ele>
        <time>2020-03-08T10:42:21Z</time>
      </trkpt>
      <trkpt lat="43.145429" lon="2.631352">
        <ele>524.1</ele>
        <time>2020-03-08T10:42:31Z</time>
      </trkpt>
      <trkpt lat="43.145335" lon="2.631357">
        <ele>523.2</ele>
        <time>2020-03-08T10:42:41Z</time>
      </trkpt>
      <trkpt lat="43.145245" lon="2.631360">
        <ele>520.5</ele>
        <time>2020-03-08T10:42:52Z</time>
      </trkpt>
      <trkpt lat="43.145150" lon="2.631367">
        <ele>518.2</ele>
        <time>2020-03-08T10:43:02Z</time>
      </trkpt>
      <trkpt lat="43.145052" lon="2.631381">
        <ele>515.3</ele>
        <time>2020-03-08T10:43:11Z</time>
      </trkpt>
      <trkpt lat="43.144961" lon="2.631397">
        <ele>513.5</ele>
        <time>2020-03-08T10:43:23Z</time>
      </trkpt>
      <trkpt lat="43.144875" lon="2.631443">
        <ele>509.9</ele>
        <time>2020-03-08T10:43:32Z</time>
      </trkpt>
      <trkpt lat="43.144799" lon="2.631535">
        <ele>508.2</ele>
        <time>2020-03-08T10:43:41Z</time>
      </trkpt>
      <trkpt lat="43.144738" lon="2.631622">
        <ele>506.5</ele>
        <time>2020-03-08T10:43:50Z</time>
      </trkpt>
      <trkpt lat="43.144655" lon="2.631667">
        <ele>504.6</ele>
        <time>2020-03-08T10:43:59Z</time>
      </trkpt>
      <trkpt lat="43.144575" lon="2.631727">
        <ele>503.1</ele>
        <time>2020-03-08T10:44:08Z</time>
      </trkpt>
      <trkpt lat="43.144482" lon="2.631757">
        <ele>502.3</ele>
        <time>2020-03-08T10:44:17Z</time>
      </trkpt>
      <trkpt lat="43.144390" lon="2.631809">
        <ele>500.6</ele>
        <time>2020-03-08T10:44:36Z</time>
      </trkpt>
      <trkpt lat="43.144298" lon="2.631838">
        <ele>498.6</ele>
        <time>2020-03-08T10:44:45Z</time>
      </trkpt>
      <trkpt lat="43.144208" lon="2.631897">
        <ele>497.0</ele>
        <time>2020-03-08T10:44:54Z</time>
      </trkpt>
      <trkpt lat="43.144123" lon="2.631944">
        <ele>496.2</ele>
        <time>2020-03-08T10:45:03Z</time>
      </trkpt>
      <trkpt lat="43.144026" lon="2.631959">
        <ele>496.3</ele>
        <time>2020-03-08T10:45:12Z</time>
      </trkpt>
      <trkpt lat="43.143946" lon="2.632016">
        <ele>495.5</ele>
        <time>2020-03-08T10:45:26Z</time>
      </trkpt>
      <trkpt lat="43.143867" lon="2.632090">
        <ele>494.7</ele>
        <time>2020-03-08T10:45:36Z</time>
      </trkpt>
      <trkpt lat="43.143882" lon="2.632118">
        <ele>498.5</ele>
        <time>2020-03-08T11:37:08Z</time>
      </trkpt>
      <trkpt lat="43.143980" lon="2.632158">
        <ele>498.4</ele>
        <time>2020-03-08T11:37:19Z</time>
      </trkpt>
      <trkpt lat="43.144049" lon="2.632117">
        <ele>498.4</ele>
        <time>2020-03-08T11:37:39Z</time>
      </trkpt>
      <trkpt lat="43.144112" lon="2.632114">
        <ele>498.4</ele>
        <time>2020-03-08T11:37:51Z</time>
      </trkpt>
      <trkpt lat="43.144161" lon="2.632045">
        <ele>496.8</ele>
        <time>2020-03-08T11:38:05Z</time>
      </trkpt>
      <trkpt lat="43.144222" lon="2.631964">
        <ele>501.7</ele>
        <time>2020-03-08T11:38:17Z</time>
      </trkpt>
      <trkpt lat="43.144292" lon="2.631910">
        <ele>504.1</ele>
        <time>2020-03-08T11:38:31Z</time>
      </trkpt>
      <trkpt lat="43.144375" lon="2.631859">
        <ele>504.8</ele>
        <time>2020-03-08T11:38:46Z</time>
      </trkpt>
      <trkpt lat="43.144455" lon="2.631829">
        <ele>508.5</ele>
        <time>2020-03-08T11:38:57Z</time>
      </trkpt>
      <trkpt lat="43.144547" lon="2.631781">
        <ele>506.1</ele>
        <time>2020-03-08T11:39:06Z</time>
      </trkpt>
      <trkpt lat="43.144630" lon="2.631736">
        <ele>508.8</ele>
        <time>2020-03-08T11:39:15Z</time>
      </trkpt>
      <trkpt lat="43.144712" lon="2.631682">
        <ele>510.2</ele>
        <time>2020-03-08T11:39:25Z</time>
      </trkpt>
      <trkpt lat="43.144792" lon="2.631613">
        <ele>511.0</ele>
        <time>2020-03-08T11:39:35Z</time>
      </trkpt>
      <trkpt lat="43.144851" lon="2.631659">
        <ele>513.3</ele>
        <time>2020-03-08T11:40:05Z</time>
      </trkpt>
      <trkpt lat="43.144964" lon="2.631679">
        <ele>513.3</ele>
        <time>2020-03-08T11:40:22Z</time>
      </trkpt>
      <trkpt lat="43.145071" lon="2.631680">
        <ele>510.8</ele>
        <time>2020-03-08T11:40:37Z</time>
      </trkpt>
      <trkpt lat="43.145145" lon="2.631750">
        <ele>505.7</ele>
        <time>2020-03-08T11:40:52Z</time>
      </trkpt>
      <trkpt lat="43.145228" lon="2.631843">
        <ele>499.6</ele>
        <time>2020-03-08T11:41:09Z</time>
      </trkpt>
      <trkpt lat="43.145297" lon="2.631964">
        <ele>494.7</ele>
        <time>2020-03-08T11:41:21Z</time>
      </trkpt>
      <trkpt lat="43.145363" lon="2.632081">
        <ele>490.5</ele>
        <time>2020-03-08T11:41:33Z</time>
      </trkpt>
      <trkpt lat="43.145409" lon="2.632222">
        <ele>486.1</ele>
        <time>2020-03-08T11:41:46Z</time>
      </trkpt>
      <trkpt lat="43.145437" lon="2.632356">
        <ele>481.2</ele>
        <time>2020-03-08T11:41:56Z</time>
      </trkpt>
      <trkpt lat="43.145470" lon="2.632483">
        <ele>477.3</ele>
        <time>2020-03-08T11:42:06Z</time>
      </trkpt>
      <trkpt lat="43.145574" lon="2.632535">
        <ele>475.7</ele>
        <time>2020-03-08T11:42:18Z</time>
      </trkpt>
      <trkpt lat="43.145677" lon="2.632572">
        <ele>475.7</ele>
        <time>2020-03-08T11:42:35Z</time>
      </trkpt>
      <trkpt lat="43.145786" lon="2.632648">
        <ele>471.8</ele>
        <time>2020-03-08T11:42:49Z</time>
      </trkpt>
      <trkpt lat="43.145898" lon="2.632708">
        <ele>471.5</ele>
        <time>2020-03-08T11:43:55Z</time>
      </trkpt>
      <trkpt lat="43.146018" lon="2.632798">
        <ele>471.4</ele>
        <time>2020-03-08T11:44:10Z</time>
      </trkpt>
      <trkpt lat="43.146175" lon="2.632806">
        <ele>471.2</ele>
        <time>2020-03-08T11:44:25Z</time>
      </trkpt>
      <trkpt lat="43.146321" lon="2.632873">
        <ele>471.1</ele>
        <time>2020-03-08T11:44:40Z</time>
      </trkpt>
      <trkpt lat="43.146434" lon="2.632970">
        <ele>470.9</ele>
        <time>2020-03-08T11:44:51Z</time>
      </trkpt>
      <trkpt lat="43.146558" lon="2.633030">
        <ele>470.8</ele>
        <time>2020-03-08T11:45:03Z</time>
      </trkpt>
      <trkpt lat="43.146675" lon="2.633136">
        <ele>470.6</ele>
        <time>2020-03-08T11:45:13Z</time>
      </trkpt>
      <trkpt lat="43.146759" lon="2.633242">
        <ele>468.8</ele>
        <time>2020-03-08T11:45:23Z</time>
      </trkpt>
      <trkpt lat="43.146817" lon="2.633377">
        <ele>465.0</ele>
        <time>2020-03-08T11:45:34Z</time>
      </trkpt>
      <trkpt lat="43.146807" lon="2.633509">
        <ele>461.6</ele>
        <time>2020-03-08T11:45:48Z</time>
      </trkpt>
      <trkpt lat="43.146856" lon="2.633651">
        <ele>457.6</ele>
        <time>2020-03-08T11:46:00Z</time>
      </trkpt>
      <trkpt lat="43.146890" lon="2.633811">
        <ele>453.3</ele>
        <time>2020-03-08T11:46:13Z</time>
      </trkpt>
      <trkpt lat="43.146915" lon="2.633975">
        <ele>449.6</ele>
        <time>2020-03-08T11:46:26Z</time>
      </trkpt>
      <trkpt lat="43.146919" lon="2.634132">
        <ele>448.5</ele>
        <time>2020-03-08T11:46:36Z</time>
      </trkpt>
      <trkpt lat="43.146961" lon="2.634288">
        <ele>445.5</ele>
        <time>2020-03-08T11:46:48Z</time>
      </trkpt>
      <trkpt lat="43.147010" lon="2.634441">
        <ele>443.6</ele>
        <time>2020-03-08T11:47:00Z</time>
      </trkpt>
      <trkpt lat="43.147093" lon="2.634572">
        <ele>441.0</ele>
        <time>2020-03-08T11:47:12Z</time>
      </trkpt>
      <trkpt lat="43.147233" lon="2.634587">
        <ele>440.9</ele>
        <time>2020-03-08T11:47:25Z</time>
      </trkpt>
      <trkpt lat="43.147336" lon="2.634590">
        <ele>440.7</ele>
        <time>2020-03-08T11:47:39Z</time>
      </trkpt>
      <trkpt lat="43.147370" lon="2.634692">
        <ele>443.4</ele>
        <time>2020-03-08T11:51:53Z</time>
      </trkpt>
      <trkpt lat="43.147473" lon="2.634691">
        <ele>443.4</ele>
        <time>2020-03-08T11:52:06Z</time>
      </trkpt>
      <trkpt lat="43.147584" lon="2.634706">
        <ele>443.4</ele>
        <time>2020-03-08T11:52:18Z</time>
      </trkpt>
      <trkpt lat="43.147704" lon="2.634697">
        <ele>443.4</ele>
        <time>2020-03-08T11:52:31Z</time>
      </trkpt>
      <trkpt lat="43.147828" lon="2.634710">
        <ele>441.2</ele>
        <time>2020-03-08T11:52:48Z</time>
      </trkpt>
      <trkpt lat="43.147943" lon="2.634683">
        <ele>440.3</ele>
        <time>2020-03-08T11:53:03Z</time>
      </trkpt>
      <trkpt lat="43.148050" lon="2.634640">
        <ele>438.7</ele>
        <time>2020-03-08T11:53:16Z</time>
      </trkpt>
      <trkpt lat="43.148175" lon="2.634558">
        <ele>437.0</ele>
        <time>2020-03-08T11:53:29Z</time>
      </trkpt>
      <trkpt lat="43.148275" lon="2.634492">
        <ele>434.3</ele>
        <time>2020-03-08T11:53:42Z</time>
      </trkpt>
      <trkpt lat="43.148397" lon="2.634407">
        <ele>433.4</ele>
        <time>2020-03-08T11:53:53Z</time>
      </trkpt>
      <trkpt lat="43.148414" lon="2.634253">
        <ele>433.4</ele>
        <time>2020-03-08T11:54:04Z</time>
      </trkpt>
      <trkpt lat="43.148432" lon="2.634109">
        <ele>437.6</ele>
        <time>2020-03-08T11:54:17Z</time>
      </trkpt>
      <trkpt lat="43.148477" lon="2.633966">
        <ele>437.5</ele>
        <time>2020-03-08T11:54:29Z</time>
      </trkpt>
      <trkpt lat="43.148544" lon="2.633812">
        <ele>440.4</ele>
        <time>2020-03-08T11:54:43Z</time>
      </trkpt>
      <trkpt lat="43.148635" lon="2.633718">
        <ele>436.0</ele>
        <time>2020-03-08T11:54:59Z</time>
      </trkpt>
      <trkpt lat="43.148739" lon="2.633596">
        <ele>434.1</ele>
        <time>2020-03-08T11:55:15Z</time>
      </trkpt>
      <trkpt lat="43.148878" lon="2.633482">
        <ele>432.4</ele>
        <time>2020-03-08T11:55:29Z</time>
      </trkpt>
      <trkpt lat="43.148987" lon="2.633366">
        <ele>428.4</ele>
        <time>2020-03-08T11:55:42Z</time>
      </trkpt>
      <trkpt lat="43.149096" lon="2.633265">
        <ele>426.5</ele>
        <time>2020-03-08T11:55:54Z</time>
      </trkpt>
      <trkpt lat="43.149189" lon="2.633174">
        <ele>424.8</ele>
        <time>2020-03-08T11:56:05Z</time>
      </trkpt>
      <trkpt lat="43.149299" lon="2.633077">
        <ele>424.6</ele>
        <time>2020-03-08T11:56:17Z</time>
      </trkpt>
      <trkpt lat="43.149403" lon="2.632915">
        <ele>424.4</ele>
        <time>2020-03-08T11:56:30Z</time>
      </trkpt>
      <trkpt lat="43.149532" lon="2.632767">
        <ele>424.2</ele>
        <time>2020-03-08T11:56:44Z</time>
      </trkpt>
      <trkpt lat="43.149656" lon="2.632608">
        <ele>426.2</ele>
        <time>2020-03-08T11:57:02Z</time>
      </trkpt>
      <trkpt lat="43.149850" lon="2.632492">
        <ele>427.7</ele>
        <time>2020-03-08T11:57:18Z</time>
      </trkpt>
      <trkpt lat="43.149995" lon="2.632396">
        <ele>428.2</ele>
        <time>2020-03-08T11:57:33Z</time>
      </trkpt>
      <trkpt lat="43.150201" lon="2.632297">
        <ele>428.6</ele>
        <time>2020-03-08T11:57:47Z</time>
      </trkpt>
      <trkpt lat="43.150321" lon="2.632207">
        <ele>428.2</ele>
        <time>2020-03-08T11:58:00Z</time>
      </trkpt>
      <trkpt lat="43.150448" lon="2.632144">
        <ele>427.8</ele>
        <time>2020-03-08T11:58:14Z</time>
      </trkpt>
      <trkpt lat="43.150624" lon="2.632079">
        <ele>427.5</ele>
        <time>2020-03-08T11:58:26Z</time>
      </trkpt>
      <trkpt lat="43.150724" lon="2.632013">
        <ele>424.6</ele>
        <time>2020-03-08T11:58:37Z</time>
      </trkpt>
      <trkpt lat="43.150868" lon="2.631961">
        <ele>421.5</ele>
        <time>2020-03-08T11:58:50Z</time>
      </trkpt>
      <trkpt lat="43.150996" lon="2.631924">
        <ele>420.3</ele>
        <time>2020-03-08T11:59:00Z</time>
      </trkpt>
      <trkpt lat="43.151080" lon="2.631913">
        <ele>418.3</ele>
        <time>2020-03-08T11:59:10Z</time>
      </trkpt>
      <trkpt lat="43.151205" lon="2.631915">
        <ele>417.3</ele>
        <time>2020-03-08T11:59:20Z</time>
      </trkpt>
      <trkpt lat="43.151336" lon="2.631899">
        <ele>416.3</ele>
        <time>2020-03-08T11:59:31Z</time>
      </trkpt>
      <trkpt lat="43.151487" lon="2.631858">
        <ele>416.1</ele>
        <time>2020-03-08T11:59:43Z</time>
      </trkpt>
      <trkpt lat="43.151592" lon="2.631791">
        <ele>416.0</ele>
        <time>2020-03-08T11:59:54Z</time>
      </trkpt>
      <trkpt lat="43.151676" lon="2.631700">
        <ele>415.7</ele>
        <time>2020-03-08T12:00:06Z</time>
      </trkpt>
      <trkpt lat="43.151766" lon="2.631584">
        <ele>415.5</ele>
        <time>2020-03-08T12:00:20Z</time>
      </trkpt>
      <trkpt lat="43.151873" lon="2.631493">
        <ele>414.4</ele>
        <time>2020-03-08T12:00:34Z</time>
      </trkpt>
      <trkpt lat="43.152048" lon="2.631456">
        <ele>413.4</ele>
        <time>2020-03-08T12:00:52Z</time>
      </trkpt>
      <trkpt lat="43.152236" lon="2.631394">
        <ele>413.2</ele>
        <time>2020-03-08T12:01:09Z</time>
      </trkpt>
      <trkpt lat="43.152391" lon="2.631378">
        <ele>412.9</ele>
        <time>2020-03-08T12:01:27Z</time>
      </trkpt>
      <trkpt lat="43.152513" lon="2.631397">
        <ele>412.7</ele>
        <time>2020-03-08T12:01:39Z</time>
      </trkpt>
      <trkpt lat="43.152647" lon="2.631425">
        <ele>411.5</ele>
        <time>2020-03-08T12:01:50Z</time>
      </trkpt>
      <trkpt lat="43.152812" lon="2.631429">
        <ele>409.5</ele>
        <time>2020-03-08T12:02:02Z</time>
      </trkpt>
      <trkpt lat="43.152925" lon="2.631446">
        <ele>407.6</ele>
        <time>2020-03-08T12:02:13Z</time>
      </trkpt>
      <trkpt lat="43.153019" lon="2.631538">
        <ele>405.8</ele>
        <time>2020-03-08T12:02:25Z</time>
      </trkpt>
      <trkpt lat="43.153133" lon="2.631648">
        <ele>403.1</ele>
        <time>2020-03-08T12:02:36Z</time>
      </trkpt>
      <trkpt lat="43.153170" lon="2.631756">
        <ele>400.4</ele>
        <time>2020-03-08T12:02:48Z</time>
      </trkpt>
      <trkpt lat="43.153108" lon="2.631884">
        <ele>398.5</ele>
        <time>2020-03-08T12:02:57Z</time>
      </trkpt>
      <trkpt lat="43.153127" lon="2.632031">
        <ele>395.9</ele>
        <time>2020-03-08T12:03:06Z</time>
      </trkpt>
      <trkpt lat="43.153193" lon="2.632167">
        <ele>393.3</ele>
        <time>2020-03-08T12:03:17Z</time>
      </trkpt>
      <trkpt lat="43.153323" lon="2.632204">
        <ele>389.3</ele>
        <time>2020-03-08T12:03:29Z</time>
      </trkpt>
      <trkpt lat="43.153428" lon="2.632271">
        <ele>386.4</ele>
        <time>2020-03-08T12:03:41Z</time>
      </trkpt>
      <trkpt lat="43.153564" lon="2.632353">
        <ele>383.4</ele>
        <time>2020-03-08T12:03:54Z</time>
      </trkpt>
      <trkpt lat="43.153624" lon="2.632461">
        <ele>382.5</ele>
        <time>2020-03-08T12:04:03Z</time>
      </trkpt>
      <trkpt lat="43.153603" lon="2.632570">
        <ele>381.6</ele>
        <time>2020-03-08T12:04:15Z</time>
      </trkpt>
      <trkpt lat="43.153525" lon="2.632621">
        <ele>380.6</ele>
        <time>2020-03-08T12:04:32Z</time>
      </trkpt>
      <trkpt lat="43.153561" lon="2.632739">
        <ele>379.7</ele>
        <time>2020-03-08T12:05:43Z</time>
      </trkpt>
      <trkpt lat="43.153647" lon="2.632812">
        <ele>378.8</ele>
        <time>2020-03-08T12:05:52Z</time>
      </trkpt>
      <trkpt lat="43.153758" lon="2.632865">
        <ele>378.9</ele>
        <time>2020-03-08T12:06:02Z</time>
      </trkpt>
      <trkpt lat="43.153873" lon="2.632877">
        <ele>378.9</ele>
        <time>2020-03-08T12:06:11Z</time>
      </trkpt>
      <trkpt lat="43.153963" lon="2.632874">
        <ele>377.9</ele>
        <time>2020-03-08T12:06:19Z</time>
      </trkpt>
      <trkpt lat="43.154067" lon="2.632898">
        <ele>376.8</ele>
        <time>2020-03-08T12:06:27Z</time>
      </trkpt>
      <trkpt lat="43.154163" lon="2.632945">
        <ele>375.1</ele>
        <time>2020-03-08T12:06:35Z</time>
      </trkpt>
      <trkpt lat="43.154245" lon="2.632893">
        <ele>375.2</ele>
        <time>2020-03-08T12:06:44Z</time>
      </trkpt>
      <trkpt lat="43.154337" lon="2.632877">
        <ele>374.2</ele>
        <time>2020-03-08T12:06:52Z</time>
      </trkpt>
      <trkpt lat="43.154437" lon="2.632867">
        <ele>372.1</ele>
        <time>2020-03-08T12:06:59Z</time>
      </trkpt>
      <trkpt lat="43.154531" lon="2.632868">
        <ele>371.3</ele>
        <time>2020-03-08T12:07:07Z</time>
      </trkpt>
      <trkpt lat="43.154628" lon="2.632855">
        <ele>370.5</ele>
        <time>2020-03-08T12:07:15Z</time>
      </trkpt>
      <trkpt lat="43.154730" lon="2.632844">
        <ele>368.6</ele>
        <time>2020-03-08T12:07:23Z</time>
      </trkpt>
      <trkpt lat="43.154831" lon="2.632843">
        <ele>368.6</ele>
        <time>2020-03-08T12:07:32Z</time>
      </trkpt>
      <trkpt lat="43.154934" lon="2.632833">
        <ele>368.7</ele>
        <time>2020-03-08T12:07:40Z</time>
      </trkpt>
      <trkpt lat="43.155029" lon="2.632836">
        <ele>365.8</ele>
        <time>2020-03-08T12:07:48Z</time>
      </trkpt>
      <trkpt lat="43.155134" lon="2.632846">
        <ele>365.9</ele>
        <time>2020-03-08T12:07:56Z</time>
      </trkpt>
      <trkpt lat="43.155241" lon="2.632835">
        <ele>364.2</ele>
        <time>2020-03-08T12:08:04Z</time>
      </trkpt>
      <trkpt lat="43.155339" lon="2.632811">
        <ele>363.4</ele>
        <time>2020-03-08T12:08:11Z</time>
      </trkpt>
      <trkpt lat="43.155438" lon="2.632820">
        <ele>361.7</ele>
        <time>2020-03-08T12:08:19Z</time>
      </trkpt>
      <trkpt lat="43.155526" lon="2.632878">
        <ele>359.9</ele>
        <time>2020-03-08T12:08:26Z</time>
      </trkpt>
      <trkpt lat="43.155624" lon="2.632904">
        <ele>357.0</ele>
        <time>2020-03-08T12:08:34Z</time>
      </trkpt>
      <trkpt lat="43.155718" lon="2.632858">
        <ele>354.6</ele>
        <time>2020-03-08T12:08:41Z</time>
      </trkpt>
      <trkpt lat="43.155822" lon="2.632787">
        <ele>352.6</ele>
        <time>2020-03-08T12:08:48Z</time>
      </trkpt>
      <trkpt lat="43.155912" lon="2.632716">
        <ele>352.7</ele>
        <time>2020-03-08T12:08:55Z</time>
      </trkpt>
      <trkpt lat="43.155996" lon="2.632673">
        <ele>351.9</ele>
        <time>2020-03-08T12:09:02Z</time>
      </trkpt>
      <trkpt lat="43.156095" lon="2.632663">
        <ele>351.1</ele>
        <time>2020-03-08T12:09:10Z</time>
      </trkpt>
      <trkpt lat="43.156198" lon="2.632667">
        <ele>349.5</ele>
        <time>2020-03-08T12:09:18Z</time>
      </trkpt>
      <trkpt lat="43.156289" lon="2.632658">
        <ele>348.4</ele>
        <time>2020-03-08T12:09:25Z</time>
      </trkpt>
      <trkpt lat="43.156372" lon="2.632610">
        <ele>347.4</ele>
        <time>2020-03-08T12:09:48Z</time>
      </trkpt>
      <trkpt lat="43.156457" lon="2.632646">
        <ele>347.4</ele>
        <time>2020-03-08T12:09:57Z</time>
      </trkpt>
      <trkpt lat="43.156554" lon="2.632634">
        <ele>345.7</ele>
        <time>2020-03-08T12:10:06Z</time>
      </trkpt>
      <trkpt lat="43.156655" lon="2.632605">
        <ele>343.8</ele>
        <time>2020-03-08T12:10:15Z</time>
      </trkpt>
      <trkpt lat="43.156759" lon="2.632546">
        <ele>341.9</ele>
        <time>2020-03-08T12:10:24Z</time>
      </trkpt>
      <trkpt lat="43.156859" lon="2.632461">
        <ele>341.0</ele>
        <time>2020-03-08T12:10:34Z</time>
      </trkpt>
      <trkpt lat="43.156970" lon="2.632426">
        <ele>340.2</ele>
        <time>2020-03-08T12:10:42Z</time>
      </trkpt>
      <trkpt lat="43.157076" lon="2.632394">
        <ele>338.5</ele>
        <time>2020-03-08T12:10:50Z</time>
      </trkpt>
      <trkpt lat="43.157180" lon="2.632330">
        <ele>336.7</ele>
        <time>2020-03-08T12:10:58Z</time>
      </trkpt>
      <trkpt lat="43.157277" lon="2.632278">
        <ele>334.1</ele>
        <time>2020-03-08T12:11:06Z</time>
      </trkpt>
      <trkpt lat="43.157377" lon="2.632197">
        <ele>332.5</ele>
        <time>2020-03-08T12:11:15Z</time>
      </trkpt>
      <trkpt lat="43.157461" lon="2.632111">
        <ele>331.0</ele>
        <time>2020-03-08T12:11:23Z</time>
      </trkpt>
      <trkpt lat="43.157544" lon="2.632014">
        <ele>330.2</ele>
        <time>2020-03-08T12:11:32Z</time>
      </trkpt>
      <trkpt lat="43.157629" lon="2.631910">
        <ele>328.5</ele>
        <time>2020-03-08T12:11:41Z</time>
      </trkpt>
      <trkpt lat="43.157724" lon="2.631845">
        <ele>327.8</ele>
        <time>2020-03-08T12:11:50Z</time>
      </trkpt>
      <trkpt lat="43.157809" lon="2.631779">
        <ele>325.6</ele>
        <time>2020-03-08T12:11:58Z</time>
      </trkpt>
      <trkpt lat="43.157895" lon="2.631706">
        <ele>323.5</ele>
        <time>2020-03-08T12:12:06Z</time>
      </trkpt>
      <trkpt lat="43.157986" lon="2.631647">
        <ele>320.3</ele>
        <time>2020-03-08T12:12:14Z</time>
      </trkpt>
      <trkpt lat="43.158058" lon="2.631545">
        <ele>319.4</ele>
        <time>2020-03-08T12:12:22Z</time>
      </trkpt>
      <trkpt lat="43.158112" lon="2.631433">
        <ele>319.5</ele>
        <time>2020-03-08T12:12:31Z</time>
      </trkpt>
      <trkpt lat="43.158156" lon="2.631301">
        <ele>317.9</ele>
        <time>2020-03-08T12:12:43Z</time>
      </trkpt>
      <trkpt lat="43.158181" lon="2.631170">
        <ele>317.9</ele>
        <time>2020-03-08T12:12:58Z</time>
      </trkpt>
      <trkpt lat="43.158186" lon="2.631052">
        <ele>317.8</ele>
        <time>2020-03-08T12:13:20Z</time>
      </trkpt>
      <trkpt lat="43.158249" lon="2.630931">
        <ele>317.0</ele>
        <time>2020-03-08T12:13:35Z</time>
      </trkpt>
      <trkpt lat="43.158336" lon="2.630810">
        <ele>316.2</ele>
        <time>2020-03-08T12:13:46Z</time>
      </trkpt>
      <trkpt lat="43.158417" lon="2.630724">
        <ele>314.5</ele>
        <time>2020-03-08T12:13:57Z</time>
      </trkpt>
      <trkpt lat="43.158478" lon="2.630610">
        <ele>313.7</ele>
        <time>2020-03-08T12:14:11Z</time>
      </trkpt>
      <trkpt lat="43.158578" lon="2.630524">
        <ele>311.9</ele>
        <time>2020-03-08T12:14:22Z</time>
      </trkpt>
      <trkpt lat="43.158691" lon="2.630480">
        <ele>308.2</ele>
        <time>2020-03-08T12:14:31Z</time>
      </trkpt>
      <trkpt lat="43.158778" lon="2.630421">
        <ele>305.5</ele>
        <time>2020-03-08T12:14:42Z</time>
      </trkpt>
      <trkpt lat="43.158884" lon="2.630342">
        <ele>303.8</ele>
        <time>2020-03-08T12:14:52Z</time>
      </trkpt>
      <trkpt lat="43.158965" lon="2.630232">
        <ele>302.1</ele>
        <time>2020-03-08T12:15:03Z</time>
      </trkpt>
      <trkpt lat="43.159054" lon="2.630095">
        <ele>300.4</ele>
        <time>2020-03-08T12:15:15Z</time>
      </trkpt>
      <trkpt lat="43.159127" lon="2.629973">
        <ele>298.6</ele>
        <time>2020-03-08T12:15:26Z</time>
      </trkpt>
      <trkpt lat="43.159268" lon="2.629803">
        <ele>296.7</ele>
        <time>2020-03-08T12:15:38Z</time>
      </trkpt>
      <trkpt lat="43.159415" lon="2.629610">
        <ele>296.6</ele>
        <time>2020-03-08T12:15:54Z</time>
      </trkpt>
      <trkpt lat="43.159529" lon="2.629564">
        <ele>294.7</ele>
        <time>2020-03-08T12:16:26Z</time>
      </trkpt>
      <trkpt lat="43.159530" lon="2.629682">
        <ele>294.6</ele>
        <time>2020-03-08T12:16:44Z</time>
      </trkpt>
      <trkpt lat="43.159591" lon="2.629803">
        <ele>294.5</ele>
        <time>2020-03-08T12:16:54Z</time>
      </trkpt>
      <trkpt lat="43.159665" lon="2.629920">
        <ele>294.4</ele>
        <time>2020-03-08T12:17:04Z</time>
      </trkpt>
      <trkpt lat="43.159692" lon="2.630042">
        <ele>293.5</ele>
        <time>2020-03-08T12:17:11Z</time>
      </trkpt>
      <trkpt lat="43.159761" lon="2.630202">
        <ele>291.5</ele>
        <time>2020-03-08T12:17:21Z</time>
      </trkpt>
      <trkpt lat="43.159820" lon="2.630331">
        <ele>291.5</ele>
        <time>2020-03-08T12:17:35Z</time>
      </trkpt>
      <trkpt lat="43.159879" lon="2.630459">
        <ele>289.7</ele>
        <time>2020-03-08T12:17:45Z</time>
      </trkpt>
      <trkpt lat="43.159950" lon="2.630568">
        <ele>287.8</ele>
        <time>2020-03-08T12:17:54Z</time>
      </trkpt>
      <trkpt lat="43.159990" lon="2.630706">
        <ele>287.0</ele>
        <time>2020-03-08T12:18:03Z</time>
      </trkpt>
      <trkpt lat="43.160037" lon="2.630828">
        <ele>286.2</ele>
        <time>2020-03-08T12:18:11Z</time>
      </trkpt>
      <trkpt lat="43.160050" lon="2.630989">
        <ele>284.5</ele>
        <time>2020-03-08T12:18:21Z</time>
      </trkpt>
      <trkpt lat="43.160039" lon="2.631143">
        <ele>282.8</ele>
        <time>2020-03-08T12:18:29Z</time>
      </trkpt>
      <trkpt lat="43.160073" lon="2.631264">
        <ele>281.7</ele>
        <time>2020-03-08T12:18:38Z</time>
      </trkpt>
      <trkpt lat="43.160108" lon="2.631419">
        <ele>280.9</ele>
        <time>2020-03-08T12:18:47Z</time>
      </trkpt>
      <trkpt lat="43.160132" lon="2.631606">
        <ele>279.9</ele>
        <time>2020-03-08T12:18:58Z</time>
      </trkpt>
      <trkpt lat="43.160198" lon="2.631736">
        <ele>278.3</ele>
        <time>2020-03-08T12:19:07Z</time>
      </trkpt>
      <trkpt lat="43.160273" lon="2.631876">
        <ele>277.5</ele>
        <time>2020-03-08T12:19:17Z</time>
      </trkpt>
      <trkpt lat="43.160319" lon="2.632036">
        <ele>277.5</ele>
        <time>2020-03-08T12:19:27Z</time>
      </trkpt>
      <trkpt lat="43.160389" lon="2.632191">
        <ele>277.5</ele>
        <time>2020-03-08T12:19:37Z</time>
      </trkpt>
      <trkpt lat="43.160446" lon="2.632340">
        <ele>277.5</ele>
        <time>2020-03-08T12:19:48Z</time>
      </trkpt>
      <trkpt lat="43.160499" lon="2.632480">
        <ele>277.5</ele>
        <time>2020-03-08T12:19:58Z</time>
      </trkpt>
      <trkpt lat="43.160548" lon="2.632626">
        <ele>277.5</ele>
        <time>2020-03-08T12:20:07Z</time>
      </trkpt>
      <trkpt lat="43.160581" lon="2.632795">
        <ele>280.7</ele>
        <time>2020-03-08T12:20:18Z</time>
      </trkpt>
      <trkpt lat="43.160614" lon="2.632951">
        <ele>280.7</ele>
        <time>2020-03-08T12:20:27Z</time>
      </trkpt>
      <trkpt lat="43.160634" lon="2.633134">
        <ele>281.5</ele>
        <time>2020-03-08T12:20:38Z</time>
      </trkpt>
      <trkpt lat="43.160667" lon="2.633303">
        <ele>282.4</ele>
        <time>2020-03-08T12:20:49Z</time>
      </trkpt>
      <trkpt lat="43.160662" lon="2.633462">
        <ele>282.4</ele>
        <time>2020-03-08T12:21:05Z</time>
      </trkpt>
      <trkpt lat="43.160669" lon="2.633612">
        <ele>282.4</ele>
        <time>2020-03-08T12:21:13Z</time>
      </trkpt>
      <trkpt lat="43.160714" lon="2.633739">
        <ele>282.4</ele>
        <time>2020-03-08T12:21:23Z</time>
      </trkpt>
      <trkpt lat="43.160746" lon="2.633883">
        <ele>282.5</ele>
        <time>2020-03-08T12:21:32Z</time>
      </trkpt>
      <trkpt lat="43.160757" lon="2.634033">
        <ele>283.5</ele>
        <time>2020-03-08T12:21:41Z</time>
      </trkpt>
      <trkpt lat="43.160784" lon="2.634169">
        <ele>283.5</ele>
        <time>2020-03-08T12:21:49Z</time>
      </trkpt>
      <trkpt lat="43.160810" lon="2.634317">
        <ele>283.5</ele>
        <time>2020-03-08T12:21:59Z</time>
      </trkpt>
      <trkpt lat="43.160842" lon="2.634468">
        <ele>284.4</ele>
        <time>2020-03-08T12:22:09Z</time>
      </trkpt>
      <trkpt lat="43.160872" lon="2.634609">
        <ele>285.2</ele>
        <time>2020-03-08T12:22:17Z</time>
      </trkpt>
      <trkpt lat="43.160903" lon="2.634745">
        <ele>285.2</ele>
        <time>2020-03-08T12:22:25Z</time>
      </trkpt>
      <trkpt lat="43.160938" lon="2.634890">
        <ele>285.2</ele>
        <time>2020-03-08T12:22:33Z</time>
      </trkpt>
      <trkpt lat="43.160999" lon="2.634995">
        <ele>285.2</ele>
        <time>2020-03-08T12:22:41Z</time>
      </trkpt>
      <trkpt lat="43.161062" lon="2.635090">
        <ele>285.2</ele>
        <time>2020-03-08T12:22:51Z</time>
      </trkpt>
      <trkpt lat="43.161149" lon="2.635179">
        <ele>285.3</ele>
        <time>2020-03-08T12:23:05Z</time>
      </trkpt>
      <trkpt lat="43.161226" lon="2.635270">
        <ele>283.0</ele>
        <time>2020-03-08T12:23:14Z</time>
      </trkpt>
      <trkpt lat="43.161301" lon="2.635347">
        <ele>280.3</ele>
        <time>2020-03-08T12:23:22Z</time>
      </trkpt>
      <trkpt lat="43.161382" lon="2.635431">
        <ele>279.4</ele>
        <time>2020-03-08T12:23:31Z</time>
      </trkpt>
      <trkpt lat="43.161460" lon="2.635536">
        <ele>279.4</ele>
        <time>2020-03-08T12:23:40Z</time>
      </trkpt>
      <trkpt lat="43.161534" lon="2.635622">
        <ele>278.6</ele>
        <time>2020-03-08T12:23:47Z</time>
      </trkpt>
      <trkpt lat="43.161597" lon="2.635734">
        <ele>277.8</ele>
        <time>2020-03-08T12:23:55Z</time>
      </trkpt>
      <trkpt lat="43.161667" lon="2.635819">
        <ele>277.9</ele>
        <time>2020-03-08T12:24:11Z</time>
      </trkpt>
      <trkpt lat="43.161697" lon="2.635948">
        <ele>277.1</ele>
        <time>2020-03-08T12:24:19Z</time>
      </trkpt>
      <trkpt lat="43.161727" lon="2.636076">
        <ele>276.3</ele>
        <time>2020-03-08T12:24:27Z</time>
      </trkpt>
      <trkpt lat="43.161754" lon="2.636204">
        <ele>276.3</ele>
        <time>2020-03-08T12:24:35Z</time>
      </trkpt>
      <trkpt lat="43.161780" lon="2.636327">
        <ele>275.6</ele>
        <time>2020-03-08T12:24:43Z</time>
      </trkpt>
      <trkpt lat="43.161791" lon="2.636478">
        <ele>275.6</ele>
        <time>2020-03-08T12:24:51Z</time>
      </trkpt>
      <trkpt lat="43.161820" lon="2.636613">
        <ele>275.7</ele>
        <time>2020-03-08T12:24:59Z</time>
      </trkpt>
      <trkpt lat="43.161845" lon="2.636754">
        <ele>275.7</ele>
        <time>2020-03-08T12:25:07Z</time>
      </trkpt>
      <trkpt lat="43.161817" lon="2.636890">
        <ele>274.1</ele>
        <time>2020-03-08T12:25:39Z</time>
      </trkpt>
      <trkpt lat="43.161734" lon="2.636949">
        <ele>273.2</ele>
        <time>2020-03-08T12:26:03Z</time>
      </trkpt>
      <trkpt lat="43.161665" lon="2.637014">
        <ele>275.6</ele>
        <time>2020-03-08T12:26:20Z</time>
      </trkpt>
      <trkpt lat="43.161646" lon="2.637147">
        <ele>276.8</ele>
        <time>2020-03-08T12:26:31Z</time>
      </trkpt>
      <trkpt lat="43.161572" lon="2.637264">
        <ele>280.8</ele>
        <time>2020-03-08T12:26:48Z</time>
      </trkpt>
      <trkpt lat="43.161519" lon="2.637380">
        <ele>282.4</ele>
        <time>2020-03-08T12:27:10Z</time>
      </trkpt>
      <trkpt lat="43.161526" lon="2.637422">
        <ele>283.6</ele>
        <time>2020-03-08T12:27:38Z</time>
      </trkpt>
      <trkpt lat="43.161482" lon="2.637523">
        <ele>281.4</ele>
        <time>2020-03-08T12:28:04Z</time>
      </trkpt>
      <trkpt lat="43.161411" lon="2.637600">
        <ele>279.7</ele>
        <time>2020-03-08T12:28:12Z</time>
      </trkpt>
      <trkpt lat="43.161343" lon="2.637639">
        <ele>278.5</ele>
        <time>2020-03-08T12:28:40Z</time>
      </trkpt>
      <trkpt lat="43.161277" lon="2.637729">
        <ele>276.8</ele>
        <time>2020-03-08T12:28:49Z</time>
      </trkpt>
      <trkpt lat="43.161343" lon="2.637700">
        <ele>276.7</ele>
        <time>2020-03-08T12:30:03Z</time>
      </trkpt>
      <trkpt lat="43.161411" lon="2.637599">
        <ele>279.3</ele>
        <time>2020-03-08T12:30:18Z</time>
      </trkpt>
      <trkpt lat="43.161481" lon="2.637504">
        <ele>281.9</ele>
        <time>2020-03-08T12:30:29Z</time>
      </trkpt>
      <trkpt lat="43.161532" lon="2.637387">
        <ele>280.9</ele>
        <time>2020-03-08T12:30:42Z</time>
      </trkpt>
      <trkpt lat="43.161581" lon="2.637277">
        <ele>280.9</ele>
        <time>2020-03-08T12:30:53Z</time>
      </trkpt>
      <trkpt lat="43.161616" lon="2.637156">
        <ele>277.5</ele>
        <time>2020-03-08T12:31:10Z</time>
      </trkpt>
      <trkpt lat="43.161659" lon="2.637051">
        <ele>276.2</ele>
        <time>2020-03-08T12:31:18Z</time>
      </trkpt>
      <trkpt lat="43.161733" lon="2.636988">
        <ele>273.9</ele>
        <time>2020-03-08T12:31:27Z</time>
      </trkpt>
      <trkpt lat="43.161812" lon="2.636943">
        <ele>273.9</ele>
        <time>2020-03-08T12:31:37Z</time>
      </trkpt>
      <trkpt lat="43.161878" lon="2.636838">
        <ele>276.0</ele>
        <time>2020-03-08T12:32:48Z</time>
      </trkpt>
      <trkpt lat="43.161970" lon="2.636867">
        <ele>276.0</ele>
        <time>2020-03-08T12:32:57Z</time>
      </trkpt>
      <trkpt lat="43.162058" lon="2.636931">
        <ele>276.0</ele>
        <time>2020-03-08T12:33:05Z</time>
      </trkpt>
      <trkpt lat="43.162152" lon="2.636990">
        <ele>275.2</ele>
        <time>2020-03-08T12:33:14Z</time>
      </trkpt>
      <trkpt lat="43.162226" lon="2.637072">
        <ele>275.2</ele>
        <time>2020-03-08T12:33:21Z</time>
      </trkpt>
      <trkpt lat="43.162299" lon="2.637157">
        <ele>275.2</ele>
        <time>2020-03-08T12:33:28Z</time>
      </trkpt>
      <trkpt lat="43.162376" lon="2.637253">
        <ele>274.4</ele>
        <time>2020-03-08T12:33:36Z</time>
      </trkpt>
      <trkpt lat="43.162449" lon="2.637339">
        <ele>272.6</ele>
        <time>2020-03-08T12:33:43Z</time>
      </trkpt>
      <trkpt lat="43.162533" lon="2.637405">
        <ele>272.6</ele>
        <time>2020-03-08T12:33:51Z</time>
      </trkpt>
      <trkpt lat="43.162623" lon="2.637479">
        <ele>272.6</ele>
        <time>2020-03-08T12:33:59Z</time>
      </trkpt>
      <trkpt lat="43.162711" lon="2.637554">
        <ele>271.6</ele>
        <time>2020-03-08T12:34:07Z</time>
      </trkpt>
      <trkpt lat="43.162802" lon="2.637626">
        <ele>270.9</ele>
        <time>2020-03-08T12:34:15Z</time>
      </trkpt>
      <trkpt lat="43.162887" lon="2.637699">
        <ele>270.9</ele>
        <time>2020-03-08T12:34:22Z</time>
      </trkpt>
      <trkpt lat="43.162980" lon="2.637750">
        <ele>270.9</ele>
        <time>2020-03-08T12:34:30Z</time>
      </trkpt>
      <trkpt lat="43.163074" lon="2.637801">
        <ele>270.0</ele>
        <time>2020-03-08T12:34:38Z</time>
      </trkpt>
      <trkpt lat="43.163168" lon="2.637842">
        <ele>270.1</ele>
        <time>2020-03-08T12:34:46Z</time>
      </trkpt>
      <trkpt lat="43.163278" lon="2.637865">
        <ele>268.3</ele>
        <time>2020-03-08T12:34:55Z</time>
      </trkpt>
      <trkpt lat="43.163375" lon="2.637907">
        <ele>266.6</ele>
        <time>2020-03-08T12:35:04Z</time>
      </trkpt>
      <trkpt lat="43.163480" lon="2.637959">
        <ele>263.6</ele>
        <time>2020-03-08T12:35:14Z</time>
      </trkpt>
      <trkpt lat="43.163582" lon="2.638010">
        <ele>261.0</ele>
        <time>2020-03-08T12:35:25Z</time>
      </trkpt>
      <trkpt lat="43.163690" lon="2.638081">
        <ele>258.2</ele>
        <time>2020-03-08T12:35:36Z</time>
      </trkpt>
      <trkpt lat="43.163804" lon="2.638152">
        <ele>255.8</ele>
        <time>2020-03-08T12:35:47Z</time>
      </trkpt>
      <trkpt lat="43.163926" lon="2.638143">
        <ele>253.9</ele>
        <time>2020-03-08T12:35:57Z</time>
      </trkpt>
      <trkpt lat="43.164036" lon="2.638108">
        <ele>253.2</ele>
        <time>2020-03-08T12:36:09Z</time>
      </trkpt>
      <trkpt lat="43.164138" lon="2.638155">
        <ele>252.5</ele>
        <time>2020-03-08T12:36:18Z</time>
      </trkpt>
      <trkpt lat="43.164246" lon="2.638209">
        <ele>250.7</ele>
        <time>2020-03-08T12:36:28Z</time>
      </trkpt>
      <trkpt lat="43.164355" lon="2.638256">
        <ele>249.1</ele>
        <time>2020-03-08T12:36:37Z</time>
      </trkpt>
      <trkpt lat="43.164485" lon="2.638314">
        <ele>247.4</ele>
        <time>2020-03-08T12:36:48Z</time>
      </trkpt>
      <trkpt lat="43.164551" lon="2.638423">
        <ele>246.5</ele>
        <time>2020-03-08T12:36:57Z</time>
      </trkpt>
      <trkpt lat="43.164639" lon="2.638534">
        <ele>244.6</ele>
        <time>2020-03-08T12:37:06Z</time>
      </trkpt>
      <trkpt lat="43.164737" lon="2.638589">
        <ele>241.4</ele>
        <time>2020-03-08T12:37:15Z</time>
      </trkpt>
      <trkpt lat="43.164808" lon="2.638681">
        <ele>239.7</ele>
        <time>2020-03-08T12:37:24Z</time>
      </trkpt>
      <trkpt lat="43.164882" lon="2.638786">
        <ele>237.3</ele>
        <time>2020-03-08T12:37:33Z</time>
      </trkpt>
      <trkpt lat="43.164958" lon="2.638889">
        <ele>235.5</ele>
        <time>2020-03-08T12:37:41Z</time>
      </trkpt>
      <trkpt lat="43.165052" lon="2.638944">
        <ele>233.8</ele>
        <time>2020-03-08T12:37:51Z</time>
      </trkpt>
      <trkpt lat="43.165141" lon="2.639042">
        <ele>231.1</ele>
        <time>2020-03-08T12:38:01Z</time>
      </trkpt>
      <trkpt lat="43.165230" lon="2.639143">
        <ele>229.2</ele>
        <time>2020-03-08T12:38:10Z</time>
      </trkpt>
      <trkpt lat="43.165324" lon="2.639185">
        <ele>227.4</ele>
        <time>2020-03-08T12:38:19Z</time>
      </trkpt>
      <trkpt lat="43.165444" lon="2.639153">
        <ele>224.8</ele>
        <time>2020-03-08T12:38:30Z</time>
      </trkpt>
      <trkpt lat="43.165542" lon="2.639224">
        <ele>222.3</ele>
        <time>2020-03-08T12:38:41Z</time>
      </trkpt>
      <trkpt lat="43.165599" lon="2.639385">
        <ele>219.7</ele>
        <time>2020-03-08T12:38:51Z</time>
      </trkpt>
      <trkpt lat="43.165695" lon="2.639446">
        <ele>218.0</ele>
        <time>2020-03-08T12:39:00Z</time>
      </trkpt>
      <trkpt lat="43.165824" lon="2.639461">
        <ele>217.2</ele>
        <time>2020-03-08T12:39:10Z</time>
      </trkpt>
      <trkpt lat="43.165973" lon="2.639398">
        <ele>217.3</ele>
        <time>2020-03-08T12:39:20Z</time>
      </trkpt>
      <trkpt lat="43.166097" lon="2.639326">
        <ele>217.3</ele>
        <time>2020-03-08T12:39:30Z</time>
      </trkpt>
      <trkpt lat="43.166193" lon="2.639308">
        <ele>215.5</ele>
        <time>2020-03-08T12:39:41Z</time>
      </trkpt>
      <trkpt lat="43.166307" lon="2.639327">
        <ele>211.8</ele>
        <time>2020-03-08T12:39:53Z</time>
      </trkpt>
      <trkpt lat="43.166425" lon="2.639344">
        <ele>208.3</ele>
        <time>2020-03-08T12:40:09Z</time>
      </trkpt>
      <trkpt lat="43.166565" lon="2.639409">
        <ele>205.4</ele>
        <time>2020-03-08T12:40:21Z</time>
      </trkpt>
      <trkpt lat="43.166713" lon="2.639438">
        <ele>201.9</ele>
        <time>2020-03-08T12:40:34Z</time>
      </trkpt>
      <trkpt lat="43.166870" lon="2.639491">
        <ele>197.9</ele>
        <time>2020-03-08T12:40:48Z</time>
      </trkpt>
      <trkpt lat="43.166821" lon="2.639635">
        <ele>194.3</ele>
        <time>2020-03-08T12:41:03Z</time>
      </trkpt>
      <trkpt lat="43.166745" lon="2.639743">
        <ele>192.6</ele>
        <time>2020-03-08T12:41:15Z</time>
      </trkpt>
      <trkpt lat="43.166619" lon="2.639806">
        <ele>190.8</ele>
        <time>2020-03-08T12:41:24Z</time>
      </trkpt>
      <trkpt lat="43.166532" lon="2.639886">
        <ele>189.9</ele>
        <time>2020-03-08T12:41:34Z</time>
      </trkpt>
      <trkpt lat="43.166488" lon="2.640125">
        <ele>185.7</ele>
        <time>2020-03-08T12:41:46Z</time>
      </trkpt>
      <trkpt lat="43.166550" lon="2.640318">
        <ele>183.7</ele>
        <time>2020-03-08T12:41:56Z</time>
      </trkpt>
      <trkpt lat="43.166646" lon="2.640416">
        <ele>182.3</ele>
        <time>2020-03-08T12:42:09Z</time>
      </trkpt>
      <trkpt lat="43.166714" lon="2.640471">
        <ele>180.8</ele>
        <time>2020-03-08T12:42:44Z</time>
      </trkpt>
      <trkpt lat="43.166753" lon="2.640597">
        <ele>179.1</ele>
        <time>2020-03-08T12:42:52Z</time>
      </trkpt>
      <trkpt lat="43.166802" lon="2.640728">
        <ele>177.0</ele>
        <time>2020-03-08T12:43:01Z</time>
      </trkpt>
      <trkpt lat="43.166835" lon="2.640849">
        <ele>175.2</ele>
        <time>2020-03-08T12:43:08Z</time>
      </trkpt>
      <trkpt lat="43.166887" lon="2.640981">
        <ele>172.2</ele>
        <time>2020-03-08T12:43:17Z</time>
      </trkpt>
      <trkpt lat="43.166982" lon="2.641081">
        <ele>170.7</ele>
        <time>2020-03-08T12:43:28Z</time>
      </trkpt>
      <trkpt lat="43.167092" lon="2.641068">
        <ele>169.9</ele>
        <time>2020-03-08T12:43:36Z</time>
      </trkpt>
      <trkpt lat="43.167201" lon="2.641078">
        <ele>168.3</ele>
        <time>2020-03-08T12:43:44Z</time>
      </trkpt>
      <trkpt lat="43.167298" lon="2.641133">
        <ele>167.4</ele>
        <time>2020-03-08T12:43:52Z</time>
      </trkpt>
      <trkpt lat="43.167400" lon="2.641178">
        <ele>166.5</ele>
        <time>2020-03-08T12:43:59Z</time>
      </trkpt>
      <trkpt lat="43.167498" lon="2.641176">
        <ele>165.7</ele>
        <time>2020-03-08T12:44:07Z</time>
      </trkpt>
      <trkpt lat="43.167604" lon="2.641180">
        <ele>165.8</ele>
        <time>2020-03-08T12:44:16Z</time>
      </trkpt>
      <trkpt lat="43.167705" lon="2.641187">
        <ele>165.1</ele>
        <time>2020-03-08T12:44:24Z</time>
      </trkpt>
      <trkpt lat="43.167810" lon="2.641210">
        <ele>163.6</ele>
        <time>2020-03-08T12:44:33Z</time>
      </trkpt>
      <trkpt lat="43.167911" lon="2.641229">
        <ele>161.8</ele>
        <time>2020-03-08T12:44:42Z</time>
      </trkpt>
      <trkpt lat="43.168007" lon="2.641218">
        <ele>161.1</ele>
        <time>2020-03-08T12:44:50Z</time>
      </trkpt>
      <trkpt lat="43.168105" lon="2.641205">
        <ele>160.4</ele>
        <time>2020-03-08T12:44:58Z</time>
      </trkpt>
      <trkpt lat="43.168200" lon="2.641227">
        <ele>160.5</ele>
        <time>2020-03-08T12:45:06Z</time>
      </trkpt>
      <trkpt lat="43.168283" lon="2.641277">
        <ele>159.6</ele>
        <time>2020-03-08T12:45:14Z</time>
      </trkpt>
      <trkpt lat="43.168374" lon="2.641337">
        <ele>159.7</ele>
        <time>2020-03-08T12:45:23Z</time>
      </trkpt>
      <trkpt lat="43.168459" lon="2.641391">
        <ele>158.8</ele>
        <time>2020-03-08T12:45:31Z</time>
      </trkpt>
      <trkpt lat="43.168550" lon="2.641444">
        <ele>158.9</ele>
        <time>2020-03-08T12:45:39Z</time>
      </trkpt>
      <trkpt lat="43.168644" lon="2.641496">
        <ele>157.0</ele>
        <time>2020-03-08T12:45:47Z</time>
      </trkpt>
      <trkpt lat="43.168735" lon="2.641552">
        <ele>156.3</ele>
        <time>2020-03-08T12:45:55Z</time>
      </trkpt>
      <trkpt lat="43.168822" lon="2.641596">
        <ele>156.3</ele>
        <time>2020-03-08T12:46:03Z</time>
      </trkpt>
      <trkpt lat="43.168915" lon="2.641637">
        <ele>154.6</ele>
        <time>2020-03-08T12:46:11Z</time>
      </trkpt>
      <trkpt lat="43.169005" lon="2.641678">
        <ele>153.8</ele>
        <time>2020-03-08T12:46:19Z</time>
      </trkpt>
      <trkpt lat="43.169119" lon="2.641733">
        <ele>153.0</ele>
        <time>2020-03-08T12:46:28Z</time>
      </trkpt>
      <trkpt lat="43.169212" lon="2.641794">
        <ele>152.3</ele>
        <time>2020-03-08T12:46:36Z</time>
      </trkpt>
      <trkpt lat="43.169301" lon="2.641855">
        <ele>151.3</ele>
        <time>2020-03-08T12:46:44Z</time>
      </trkpt>
      <trkpt lat="43.169385" lon="2.641912">
        <ele>150.6</ele>
        <time>2020-03-08T12:46:52Z</time>
      </trkpt>
      <trkpt lat="43.169455" lon="2.641984">
        <ele>148.7</ele>
        <time>2020-03-08T12:47:00Z</time>
      </trkpt>
      <trkpt lat="43.169537" lon="2.642066">
        <ele>147.1</ele>
        <time>2020-03-08T12:47:09Z</time>
      </trkpt>
      <trkpt lat="43.169627" lon="2.642101">
        <ele>145.4</ele>
        <time>2020-03-08T12:47:17Z</time>
      </trkpt>
      <trkpt lat="43.169726" lon="2.642126">
        <ele>143.5</ele>
        <time>2020-03-08T12:47:25Z</time>
      </trkpt>
      <trkpt lat="43.169820" lon="2.642150">
        <ele>142.8</ele>
        <time>2020-03-08T12:47:33Z</time>
      </trkpt>
      <trkpt lat="43.169907" lon="2.642166">
        <ele>141.9</ele>
        <time>2020-03-08T12:47:41Z</time>
      </trkpt>
      <trkpt lat="43.169996" lon="2.642195">
        <ele>140.2</ele>
        <time>2020-03-08T12:47:49Z</time>
      </trkpt>
      <trkpt lat="43.170093" lon="2.642217">
        <ele>139.4</ele>
        <time>2020-03-08T12:47:57Z</time>
      </trkpt>
      <trkpt lat="43.170194" lon="2.642243">
        <ele>138.7</ele>
        <time>2020-03-08T12:48:05Z</time>
      </trkpt>
      <trkpt lat="43.170300" lon="2.642259">
        <ele>138.7</ele>
        <time>2020-03-08T12:48:14Z</time>
      </trkpt>
      <trkpt lat="43.170396" lon="2.642290">
        <ele>137.9</ele>
        <time>2020-03-08T12:48:23Z</time>
      </trkpt>
      <trkpt lat="43.170502" lon="2.642316">
        <ele>136.9</ele>
        <time>2020-03-08T12:48:32Z</time>
      </trkpt>
      <trkpt lat="43.170613" lon="2.642330">
        <ele>136.1</ele>
        <time>2020-03-08T12:48:40Z</time>
      </trkpt>
      <trkpt lat="43.170715" lon="2.642380">
        <ele>135.2</ele>
        <time>2020-03-08T12:48:49Z</time>
      </trkpt>
      <trkpt lat="43.170822" lon="2.642406">
        <ele>133.4</ele>
        <time>2020-03-08T12:48:57Z</time>
      </trkpt>
      <trkpt lat="43.170930" lon="2.642436">
        <ele>133.4</ele>
        <time>2020-03-08T12:49:05Z</time>
      </trkpt>
      <trkpt lat="43.171030" lon="2.642459">
        <ele>132.6</ele>
        <time>2020-03-08T12:49:13Z</time>
      </trkpt>
      <trkpt lat="43.171122" lon="2.642477">
        <ele>132.6</ele>
        <time>2020-03-08T12:49:21Z</time>
      </trkpt>
      <trkpt lat="43.171228" lon="2.642498">
        <ele>131.8</ele>
        <time>2020-03-08T12:49:30Z</time>
      </trkpt>
      <trkpt lat="43.171324" lon="2.642520">
        <ele>133.3</ele>
        <time>2020-03-08T12:50:28Z</time>
      </trkpt>
      <trkpt lat="43.171419" lon="2.642545">
        <ele>133.3</ele>
        <time>2020-03-08T12:50:37Z</time>
      </trkpt>
      <trkpt lat="43.171508" lon="2.642588">
        <ele>133.4</ele>
        <time>2020-03-08T12:50:45Z</time>
      </trkpt>
      <trkpt lat="43.171588" lon="2.642662">
        <ele>131.1</ele>
        <time>2020-03-08T12:50:55Z</time>
      </trkpt>
      <trkpt lat="43.171668" lon="2.642730">
        <ele>130.1</ele>
        <time>2020-03-08T12:51:24Z</time>
      </trkpt>
      <trkpt lat="43.171761" lon="2.642744">
        <ele>130.2</ele>
        <time>2020-03-08T12:51:31Z</time>
      </trkpt>
      <trkpt lat="43.171853" lon="2.642753">
        <ele>130.2</ele>
        <time>2020-03-08T12:51:38Z</time>
      </trkpt>
      <trkpt lat="43.171955" lon="2.642746">
        <ele>129.3</ele>
        <time>2020-03-08T12:51:46Z</time>
      </trkpt>
      <trkpt lat="43.172044" lon="2.642748">
        <ele>129.3</ele>
        <time>2020-03-08T12:51:54Z</time>
      </trkpt>
      <trkpt lat="43.172148" lon="2.642744">
        <ele>127.7</ele>
        <time>2020-03-08T12:52:03Z</time>
      </trkpt>
      <trkpt lat="43.172244" lon="2.642721">
        <ele>126.8</ele>
        <time>2020-03-08T12:52:11Z</time>
      </trkpt>
      <trkpt lat="43.172345" lon="2.642702">
        <ele>125.9</ele>
        <time>2020-03-08T12:52:18Z</time>
      </trkpt>
      <trkpt lat="43.172450" lon="2.642684">
        <ele>125.1</ele>
        <time>2020-03-08T12:52:25Z</time>
      </trkpt>
      <trkpt lat="43.172547" lon="2.642663">
        <ele>124.1</ele>
        <time>2020-03-08T12:52:32Z</time>
      </trkpt>
      <trkpt lat="43.172660" lon="2.642629">
        <ele>122.5</ele>
        <time>2020-03-08T12:52:42Z</time>
      </trkpt>
      <trkpt lat="43.172781" lon="2.642586">
        <ele>121.7</ele>
        <time>2020-03-08T12:52:50Z</time>
      </trkpt>
      <trkpt lat="43.172882" lon="2.642552">
        <ele>121.7</ele>
        <time>2020-03-08T12:52:58Z</time>
      </trkpt>
      <trkpt lat="43.172990" lon="2.642549">
        <ele>120.8</ele>
        <time>2020-03-08T12:53:07Z</time>
      </trkpt>
      <trkpt lat="43.173109" lon="2.642541">
        <ele>119.3</ele>
        <time>2020-03-08T12:53:16Z</time>
      </trkpt>
      <trkpt lat="43.173235" lon="2.642528">
        <ele>119.3</ele>
        <time>2020-03-08T12:53:25Z</time>
      </trkpt>
      <trkpt lat="43.173365" lon="2.642486">
        <ele>117.5</ele>
        <time>2020-03-08T12:53:33Z</time>
      </trkpt>
      <trkpt lat="43.173486" lon="2.642471">
        <ele>116.7</ele>
        <time>2020-03-08T12:53:40Z</time>
      </trkpt>
      <trkpt lat="43.173593" lon="2.642453">
        <ele>114.9</ele>
        <time>2020-03-08T12:53:47Z</time>
      </trkpt>
      <trkpt lat="43.173702" lon="2.642442">
        <ele>114.9</ele>
        <time>2020-03-08T12:53:54Z</time>
      </trkpt>
      <trkpt lat="43.173812" lon="2.642459">
        <ele>114.1</ele>
        <time>2020-03-08T12:54:01Z</time>
      </trkpt>
      <trkpt lat="43.173919" lon="2.642484">
        <ele>113.3</ele>
        <time>2020-03-08T12:54:08Z</time>
      </trkpt>
      <trkpt lat="43.174019" lon="2.642525">
        <ele>113.3</ele>
        <time>2020-03-08T12:54:15Z</time>
      </trkpt>
      <trkpt lat="43.174115" lon="2.642566">
        <ele>112.6</ele>
        <time>2020-03-08T12:54:22Z</time>
      </trkpt>
      <trkpt lat="43.174206" lon="2.642607">
        <ele>112.6</ele>
        <time>2020-03-08T12:54:29Z</time>
      </trkpt>
      <trkpt lat="43.174300" lon="2.642651">
        <ele>111.7</ele>
        <time>2020-03-08T12:54:36Z</time>
      </trkpt>
      <trkpt lat="43.174391" lon="2.642710">
        <ele>111.7</ele>
        <time>2020-03-08T12:54:43Z</time>
      </trkpt>
      <trkpt lat="43.174431" lon="2.642827">
        <ele>111.7</ele>
        <time>2020-03-08T12:54:50Z</time>
      </trkpt>
      <trkpt lat="43.174433" lon="2.642953">
        <ele>111.8</ele>
        <time>2020-03-08T12:54:57Z</time>
      </trkpt>
      <trkpt lat="43.174418" lon="2.643091">
        <ele>111.8</ele>
        <time>2020-03-08T12:55:05Z</time>
      </trkpt>
    </trkseg>
  </trk>
</gpx>

